<?xml version="1.0" encoding="UTF-8" standalone="no" ?>
<gpx xmlns="http://www.topografix.com/GPX/1/1" xmlns:xsi="http://www.w3.org/2001/XMLSchema-instance" xsi:schemaLocation="http://www.topografix.com/GPX/1/1 http://www.topografix.com/GPX/1/1/gpx.xsd" version="1.1" creator="VisuGPX - https://www.visugpx.com">
  <metadata>
    <name>Ferme Dudu</name>
    <desc><![CDATA[Y a bon, ferme dudu du matin !]]></desc>
  </metadata>
  <trk>
    <name><![CDATA[Ferme Dudu_1]]></name>
    <trkseg>
      <trkpt lat="45.17102" lon="5.63057">
        <ele>1162</ele>
        <time>2011-09-07T06:55:25Z</time>
      </trkpt>
      <trkpt lat="45.17102" lon="5.63057">
        <ele>1162</ele>
        <time>2011-09-07T06:55:36Z</time>
      </trkpt>
      <trkpt lat="45.17102" lon="5.63057">
        <ele>1162</ele>
        <time>2011-09-07T06:56:11Z</time>
      </trkpt>
      <trkpt lat="45.17102" lon="5.63057">
        <ele>1162</ele>
        <time>2011-09-07T06:56:14Z</time>
      </trkpt>
      <trkpt lat="45.17107" lon="5.63067">
        <ele>1162</ele>
        <time>2011-09-07T06:56:17Z</time>
      </trkpt>
      <trkpt lat="45.17131" lon="5.63074">
        <ele>1162</ele>
        <time>2011-09-07T06:56:23Z</time>
      </trkpt>
      <trkpt lat="45.17149" lon="5.63065">
        <ele>1161</ele>
        <time>2011-09-07T06:56:27Z</time>
      </trkpt>
      <trkpt lat="45.17168" lon="5.6306">
        <ele>1158</ele>
        <time>2011-09-07T06:56:30Z</time>
      </trkpt>
      <trkpt lat="45.17193" lon="5.63053">
        <ele>1156</ele>
        <time>2011-09-07T06:56:34Z</time>
      </trkpt>
      <trkpt lat="45.17232" lon="5.63071">
        <ele>1153</ele>
        <time>2011-09-07T06:56:39Z</time>
      </trkpt>
      <trkpt lat="45.17247" lon="5.63111">
        <ele>1154</ele>
        <time>2011-09-07T06:56:43Z</time>
      </trkpt>
      <trkpt lat="45.17255" lon="5.63142">
        <ele>1149</ele>
        <time>2011-09-07T06:56:47Z</time>
      </trkpt>
      <trkpt lat="45.17259" lon="5.63161">
        <ele>1150</ele>
        <time>2011-09-07T06:56:51Z</time>
      </trkpt>
      <trkpt lat="45.17266" lon="5.63184">
        <ele>1150</ele>
        <time>2011-09-07T06:56:55Z</time>
      </trkpt>
      <trkpt lat="45.17282" lon="5.63188">
        <ele>1149</ele>
        <time>2011-09-07T06:57:00Z</time>
      </trkpt>
      <trkpt lat="45.17301" lon="5.63255">
        <ele>1147</ele>
        <time>2011-09-07T06:57:07Z</time>
      </trkpt>
      <trkpt lat="45.17303" lon="5.63265">
        <ele>1147</ele>
        <time>2011-09-07T06:57:08Z</time>
      </trkpt>
      <trkpt lat="45.17303" lon="5.63265">
        <ele>1147</ele>
        <time>2011-09-07T06:57:20Z</time>
      </trkpt>
      <trkpt lat="45.17303" lon="5.63265">
        <ele>1147</ele>
        <time>2011-09-07T06:57:22Z</time>
      </trkpt>
      <trkpt lat="45.1731" lon="5.633">
        <ele>1146</ele>
        <time>2011-09-07T06:57:25Z</time>
      </trkpt>
      <trkpt lat="45.17311" lon="5.63308">
        <ele>1146</ele>
        <time>2011-09-07T06:57:27Z</time>
      </trkpt>
      <trkpt lat="45.17315" lon="5.63316">
        <ele>1144</ele>
        <time>2011-09-07T06:57:31Z</time>
      </trkpt>
      <trkpt lat="45.17319" lon="5.63335">
        <ele>1141</ele>
        <time>2011-09-07T06:57:37Z</time>
      </trkpt>
      <trkpt lat="45.17318" lon="5.63345">
        <ele>1141</ele>
        <time>2011-09-07T06:57:42Z</time>
      </trkpt>
      <trkpt lat="45.17318" lon="5.63345">
        <ele>1141</ele>
        <time>2011-09-07T06:57:54Z</time>
      </trkpt>
      <trkpt lat="45.17318" lon="5.63345">
        <ele>1141</ele>
        <time>2011-09-07T06:57:54Z</time>
      </trkpt>
      <trkpt lat="45.17323" lon="5.63398">
        <ele>1137</ele>
        <time>2011-09-07T06:57:58Z</time>
      </trkpt>
      <trkpt lat="45.17328" lon="5.63447">
        <ele>1132</ele>
        <time>2011-09-07T06:58:02Z</time>
      </trkpt>
      <trkpt lat="45.17328" lon="5.63499">
        <ele>1120</ele>
        <time>2011-09-07T06:58:06Z</time>
      </trkpt>
      <trkpt lat="45.17339" lon="5.6356">
        <ele>1106</ele>
        <time>2011-09-07T06:58:11Z</time>
      </trkpt>
      <trkpt lat="45.17337" lon="5.63601">
        <ele>1105</ele>
        <time>2011-09-07T06:58:15Z</time>
      </trkpt>
      <trkpt lat="45.17357" lon="5.63626">
        <ele>1101</ele>
        <time>2011-09-07T06:58:19Z</time>
      </trkpt>
      <trkpt lat="45.17382" lon="5.63646">
        <ele>1099</ele>
        <time>2011-09-07T06:58:23Z</time>
      </trkpt>
      <trkpt lat="45.17403" lon="5.63666">
        <ele>1097</ele>
        <time>2011-09-07T06:58:27Z</time>
      </trkpt>
      <trkpt lat="45.17403" lon="5.63666">
        <ele>1097</ele>
        <time>2011-09-07T06:58:39Z</time>
      </trkpt>
      <trkpt lat="45.17403" lon="5.63666">
        <ele>1097</ele>
        <time>2011-09-07T06:59:08Z</time>
      </trkpt>
      <trkpt lat="45.17403" lon="5.63666">
        <ele>1097</ele>
        <time>2011-09-07T06:59:20Z</time>
      </trkpt>
      <trkpt lat="45.17403" lon="5.63666">
        <ele>1097</ele>
        <time>2011-09-07T06:59:30Z</time>
      </trkpt>
      <trkpt lat="45.17435" lon="5.63657">
        <ele>1090</ele>
        <time>2011-09-07T06:59:35Z</time>
      </trkpt>
      <trkpt lat="45.17456" lon="5.63646">
        <ele>1087</ele>
        <time>2011-09-07T06:59:39Z</time>
      </trkpt>
      <trkpt lat="45.17486" lon="5.63632">
        <ele>1084</ele>
        <time>2011-09-07T06:59:44Z</time>
      </trkpt>
      <trkpt lat="45.17518" lon="5.63625">
        <ele>1076</ele>
        <time>2011-09-07T06:59:48Z</time>
      </trkpt>
      <trkpt lat="45.17555" lon="5.63622">
        <ele>1074</ele>
        <time>2011-09-07T06:59:52Z</time>
      </trkpt>
      <trkpt lat="45.17585" lon="5.6362">
        <ele>1067</ele>
        <time>2011-09-07T06:59:55Z</time>
      </trkpt>
      <trkpt lat="45.17628" lon="5.6363">
        <ele>1065</ele>
        <time>2011-09-07T06:59:59Z</time>
      </trkpt>
      <trkpt lat="45.17677" lon="5.6365">
        <ele>1061</ele>
        <time>2011-09-07T07:00:04Z</time>
      </trkpt>
      <trkpt lat="45.17704" lon="5.63651">
        <ele>1060</ele>
        <time>2011-09-07T07:00:08Z</time>
      </trkpt>
      <trkpt lat="45.17728" lon="5.63643">
        <ele>1059</ele>
        <time>2011-09-07T07:00:12Z</time>
      </trkpt>
      <trkpt lat="45.17746" lon="5.63637">
        <ele>1059</ele>
        <time>2011-09-07T07:00:15Z</time>
      </trkpt>
      <trkpt lat="45.17769" lon="5.6363">
        <ele>1057</ele>
        <time>2011-09-07T07:00:19Z</time>
      </trkpt>
      <trkpt lat="45.17786" lon="5.63622">
        <ele>1057</ele>
        <time>2011-09-07T07:00:23Z</time>
      </trkpt>
      <trkpt lat="45.17805" lon="5.63616">
        <ele>1057</ele>
        <time>2011-09-07T07:00:27Z</time>
      </trkpt>
      <trkpt lat="45.17831" lon="5.6361">
        <ele>1057</ele>
        <time>2011-09-07T07:00:32Z</time>
      </trkpt>
      <trkpt lat="45.17851" lon="5.63602">
        <ele>1056</ele>
        <time>2011-09-07T07:00:36Z</time>
      </trkpt>
      <trkpt lat="45.17873" lon="5.63592">
        <ele>1056</ele>
        <time>2011-09-07T07:00:40Z</time>
      </trkpt>
      <trkpt lat="45.17897" lon="5.63584">
        <ele>1056</ele>
        <time>2011-09-07T07:00:44Z</time>
      </trkpt>
      <trkpt lat="45.17915" lon="5.63576">
        <ele>1057</ele>
        <time>2011-09-07T07:00:47Z</time>
      </trkpt>
      <trkpt lat="45.1794" lon="5.63564">
        <ele>1056</ele>
        <time>2011-09-07T07:00:51Z</time>
      </trkpt>
      <trkpt lat="45.17975" lon="5.63547">
        <ele>1056</ele>
        <time>2011-09-07T07:00:56Z</time>
      </trkpt>
      <trkpt lat="45.18001" lon="5.63534">
        <ele>1056</ele>
        <time>2011-09-07T07:01:00Z</time>
      </trkpt>
      <trkpt lat="45.18025" lon="5.63522">
        <ele>1056</ele>
        <time>2011-09-07T07:01:04Z</time>
      </trkpt>
      <trkpt lat="45.18042" lon="5.63516">
        <ele>1056</ele>
        <time>2011-09-07T07:01:07Z</time>
      </trkpt>
      <trkpt lat="45.18064" lon="5.63507">
        <ele>1057</ele>
        <time>2011-09-07T07:01:11Z</time>
      </trkpt>
      <trkpt lat="45.18086" lon="5.63502">
        <ele>1059</ele>
        <time>2011-09-07T07:01:15Z</time>
      </trkpt>
      <trkpt lat="45.18106" lon="5.63496">
        <ele>1059</ele>
        <time>2011-09-07T07:01:19Z</time>
      </trkpt>
      <trkpt lat="45.18128" lon="5.6349">
        <ele>1059</ele>
        <time>2011-09-07T07:01:23Z</time>
      </trkpt>
      <trkpt lat="45.18157" lon="5.63484">
        <ele>1060</ele>
        <time>2011-09-07T07:01:28Z</time>
      </trkpt>
      <trkpt lat="45.18177" lon="5.63479">
        <ele>1060</ele>
        <time>2011-09-07T07:01:32Z</time>
      </trkpt>
      <trkpt lat="45.182" lon="5.63473">
        <ele>1060</ele>
        <time>2011-09-07T07:01:36Z</time>
      </trkpt>
      <trkpt lat="45.18219" lon="5.63468">
        <ele>1060</ele>
        <time>2011-09-07T07:01:40Z</time>
      </trkpt>
      <trkpt lat="45.18242" lon="5.63471">
        <ele>1059</ele>
        <time>2011-09-07T07:01:44Z</time>
      </trkpt>
      <trkpt lat="45.1826" lon="5.63474">
        <ele>1059</ele>
        <time>2011-09-07T07:01:47Z</time>
      </trkpt>
      <trkpt lat="45.18271" lon="5.63476">
        <ele>1059</ele>
        <time>2011-09-07T07:01:49Z</time>
      </trkpt>
      <trkpt lat="45.18302" lon="5.63483">
        <ele>1059</ele>
        <time>2011-09-07T07:01:55Z</time>
      </trkpt>
      <trkpt lat="45.18314" lon="5.63486">
        <ele>1059</ele>
        <time>2011-09-07T07:01:57Z</time>
      </trkpt>
      <trkpt lat="45.18343" lon="5.6349">
        <ele>1058</ele>
        <time>2011-09-07T07:02:03Z</time>
      </trkpt>
      <trkpt lat="45.18355" lon="5.63488">
        <ele>1057</ele>
        <time>2011-09-07T07:02:05Z</time>
      </trkpt>
      <trkpt lat="45.18395" lon="5.6348">
        <ele>1056</ele>
        <time>2011-09-07T07:02:12Z</time>
      </trkpt>
      <trkpt lat="45.18424" lon="5.63463">
        <ele>1057</ele>
        <time>2011-09-07T07:02:16Z</time>
      </trkpt>
      <trkpt lat="45.18455" lon="5.63446">
        <ele>1059</ele>
        <time>2011-09-07T07:02:20Z</time>
      </trkpt>
      <trkpt lat="45.18484" lon="5.63447">
        <ele>1060</ele>
        <time>2011-09-07T07:02:24Z</time>
      </trkpt>
      <trkpt lat="45.18505" lon="5.63458">
        <ele>1062</ele>
        <time>2011-09-07T07:02:28Z</time>
      </trkpt>
      <trkpt lat="45.18526" lon="5.63465">
        <ele>1062</ele>
        <time>2011-09-07T07:02:32Z</time>
      </trkpt>
      <trkpt lat="45.18536" lon="5.63468">
        <ele>1063</ele>
        <time>2011-09-07T07:02:34Z</time>
      </trkpt>
      <trkpt lat="45.18559" lon="5.63471">
        <ele>1063</ele>
        <time>2011-09-07T07:02:39Z</time>
      </trkpt>
      <trkpt lat="45.18584" lon="5.63479">
        <ele>1063</ele>
        <time>2011-09-07T07:02:44Z</time>
      </trkpt>
      <trkpt lat="45.18599" lon="5.6348">
        <ele>1063</ele>
        <time>2011-09-07T07:02:48Z</time>
      </trkpt>
      <trkpt lat="45.18607" lon="5.63483">
        <ele>1063</ele>
        <time>2011-09-07T07:02:50Z</time>
      </trkpt>
      <trkpt lat="45.18639" lon="5.63488">
        <ele>1061</ele>
        <time>2011-09-07T07:02:56Z</time>
      </trkpt>
      <trkpt lat="45.18662" lon="5.63488">
        <ele>1060</ele>
        <time>2011-09-07T07:03:00Z</time>
      </trkpt>
      <trkpt lat="45.18691" lon="5.63475">
        <ele>1057</ele>
        <time>2011-09-07T07:03:04Z</time>
      </trkpt>
      <trkpt lat="45.18719" lon="5.63458">
        <ele>1056</ele>
        <time>2011-09-07T07:03:08Z</time>
      </trkpt>
      <trkpt lat="45.18751" lon="5.63439">
        <ele>1051</ele>
        <time>2011-09-07T07:03:12Z</time>
      </trkpt>
      <trkpt lat="45.18779" lon="5.63407">
        <ele>1051</ele>
        <time>2011-09-07T07:03:16Z</time>
      </trkpt>
      <trkpt lat="45.18803" lon="5.6337">
        <ele>1050</ele>
        <time>2011-09-07T07:03:21Z</time>
      </trkpt>
      <trkpt lat="45.18827" lon="5.63329">
        <ele>1047</ele>
        <time>2011-09-07T07:03:24Z</time>
      </trkpt>
      <trkpt lat="45.18847" lon="5.63298">
        <ele>1036</ele>
        <time>2011-09-07T07:03:27Z</time>
      </trkpt>
      <trkpt lat="45.18871" lon="5.63297">
        <ele>1033</ele>
        <time>2011-09-07T07:03:32Z</time>
      </trkpt>
      <trkpt lat="45.18885" lon="5.63335">
        <ele>1037</ele>
        <time>2011-09-07T07:03:36Z</time>
      </trkpt>
      <trkpt lat="45.18877" lon="5.63363">
        <ele>1038</ele>
        <time>2011-09-07T07:03:39Z</time>
      </trkpt>
      <trkpt lat="45.18869" lon="5.63421">
        <ele>1039</ele>
        <time>2011-09-07T07:03:44Z</time>
      </trkpt>
      <trkpt lat="45.18877" lon="5.63444">
        <ele>1038</ele>
        <time>2011-09-07T07:03:48Z</time>
      </trkpt>
      <trkpt lat="45.18892" lon="5.63434">
        <ele>1037</ele>
        <time>2011-09-07T07:03:52Z</time>
      </trkpt>
      <trkpt lat="45.18899" lon="5.63432">
        <ele>1036</ele>
        <time>2011-09-07T07:03:54Z</time>
      </trkpt>
      <trkpt lat="45.18899" lon="5.63432">
        <ele>1036</ele>
        <time>2011-09-07T07:04:06Z</time>
      </trkpt>
      <trkpt lat="45.18899" lon="5.63432">
        <ele>1036</ele>
        <time>2011-09-07T07:04:30Z</time>
      </trkpt>
      <trkpt lat="45.18899" lon="5.63432">
        <ele>1036</ele>
        <time>2011-09-07T07:04:42Z</time>
      </trkpt>
      <trkpt lat="45.18899" lon="5.63432">
        <ele>1036</ele>
        <time>2011-09-07T07:04:48Z</time>
      </trkpt>
      <trkpt lat="45.18933" lon="5.63417">
        <ele>1029</ele>
        <time>2011-09-07T07:04:52Z</time>
      </trkpt>
      <trkpt lat="45.18951" lon="5.63399">
        <ele>1023</ele>
        <time>2011-09-07T07:04:56Z</time>
      </trkpt>
      <trkpt lat="45.18969" lon="5.63401">
        <ele>1021</ele>
        <time>2011-09-07T07:04:59Z</time>
      </trkpt>
      <trkpt lat="45.19011" lon="5.63395">
        <ele>1008</ele>
        <time>2011-09-07T07:05:04Z</time>
      </trkpt>
      <trkpt lat="45.19032" lon="5.63387">
        <ele>1003</ele>
        <time>2011-09-07T07:05:06Z</time>
      </trkpt>
      <trkpt lat="45.19045" lon="5.63358">
        <ele>998</ele>
        <time>2011-09-07T07:05:12Z</time>
      </trkpt>
      <trkpt lat="45.19058" lon="5.63345">
        <ele>994</ele>
        <time>2011-09-07T07:05:15Z</time>
      </trkpt>
      <trkpt lat="45.19085" lon="5.63352">
        <ele>982</ele>
        <time>2011-09-07T07:05:20Z</time>
      </trkpt>
      <trkpt lat="45.19106" lon="5.63359">
        <ele>982</ele>
        <time>2011-09-07T07:05:24Z</time>
      </trkpt>
      <trkpt lat="45.19143" lon="5.63373">
        <ele>980</ele>
        <time>2011-09-07T07:05:28Z</time>
      </trkpt>
      <trkpt lat="45.19157" lon="5.63377">
        <ele>980</ele>
        <time>2011-09-07T07:05:30Z</time>
      </trkpt>
      <trkpt lat="45.19184" lon="5.6339">
        <ele>968</ele>
        <time>2011-09-07T07:05:34Z</time>
      </trkpt>
      <trkpt lat="45.19223" lon="5.6341">
        <ele>963</ele>
        <time>2011-09-07T07:05:40Z</time>
      </trkpt>
      <trkpt lat="45.19236" lon="5.63416">
        <ele>962</ele>
        <time>2011-09-07T07:05:42Z</time>
      </trkpt>
      <trkpt lat="45.19253" lon="5.63425">
        <ele>961</ele>
        <time>2011-09-07T07:05:45Z</time>
      </trkpt>
      <trkpt lat="45.19289" lon="5.63448">
        <ele>957</ele>
        <time>2011-09-07T07:05:52Z</time>
      </trkpt>
      <trkpt lat="45.19315" lon="5.63466">
        <ele>956</ele>
        <time>2011-09-07T07:05:55Z</time>
      </trkpt>
      <trkpt lat="45.19321" lon="5.63461">
        <ele>954</ele>
        <time>2011-09-07T07:06:01Z</time>
      </trkpt>
      <trkpt lat="45.19321" lon="5.63461">
        <ele>954</ele>
        <time>2011-09-07T07:06:13Z</time>
      </trkpt>
      <trkpt lat="45.19321" lon="5.63461">
        <ele>954</ele>
        <time>2011-09-07T07:06:57Z</time>
      </trkpt>
      <trkpt lat="45.19321" lon="5.63461">
        <ele>954</ele>
        <time>2011-09-07T07:07:09Z</time>
      </trkpt>
      <trkpt lat="45.19321" lon="5.63461">
        <ele>954</ele>
        <time>2011-09-07T07:07:45Z</time>
      </trkpt>
      <trkpt lat="45.19335" lon="5.63496">
        <ele>953</ele>
        <time>2011-09-07T07:07:54Z</time>
      </trkpt>
      <trkpt lat="45.19335" lon="5.63496">
        <ele>953</ele>
        <time>2011-09-07T07:08:06Z</time>
      </trkpt>
      <trkpt lat="45.19335" lon="5.63496">
        <ele>953</ele>
        <time>2011-09-07T07:08:07Z</time>
      </trkpt>
      <trkpt lat="45.1934" lon="5.63529">
        <ele>956</ele>
        <time>2011-09-07T07:08:11Z</time>
      </trkpt>
      <trkpt lat="45.19346" lon="5.63552">
        <ele>958</ele>
        <time>2011-09-07T07:08:18Z</time>
      </trkpt>
      <trkpt lat="45.19352" lon="5.63579">
        <ele>961</ele>
        <time>2011-09-07T07:08:28Z</time>
      </trkpt>
      <trkpt lat="45.19358" lon="5.63585">
        <ele>967</ele>
        <time>2011-09-07T07:08:32Z</time>
      </trkpt>
      <trkpt lat="45.19356" lon="5.63608">
        <ele>968</ele>
        <time>2011-09-07T07:08:41Z</time>
      </trkpt>
      <trkpt lat="45.19371" lon="5.63634">
        <ele>968</ele>
        <time>2011-09-07T07:08:47Z</time>
      </trkpt>
      <trkpt lat="45.19386" lon="5.63665">
        <ele>968</ele>
        <time>2011-09-07T07:08:52Z</time>
      </trkpt>
      <trkpt lat="45.19379" lon="5.63665">
        <ele>969</ele>
        <time>2011-09-07T07:08:54Z</time>
      </trkpt>
      <trkpt lat="45.19373" lon="5.63674">
        <ele>974</ele>
        <time>2011-09-07T07:08:58Z</time>
      </trkpt>
      <trkpt lat="45.19378" lon="5.63697">
        <ele>973</ele>
        <time>2011-09-07T07:09:09Z</time>
      </trkpt>
      <trkpt lat="45.19376" lon="5.63712">
        <ele>973</ele>
        <time>2011-09-07T07:09:16Z</time>
      </trkpt>
      <trkpt lat="45.19373" lon="5.63722">
        <ele>974</ele>
        <time>2011-09-07T07:09:19Z</time>
      </trkpt>
      <trkpt lat="45.19374" lon="5.63734">
        <ele>974</ele>
        <time>2011-09-07T07:09:23Z</time>
      </trkpt>
      <trkpt lat="45.1938" lon="5.63763">
        <ele>975</ele>
        <time>2011-09-07T07:09:28Z</time>
      </trkpt>
      <trkpt lat="45.19384" lon="5.63774">
        <ele>975</ele>
        <time>2011-09-07T07:09:30Z</time>
      </trkpt>
      <trkpt lat="45.19388" lon="5.63795">
        <ele>975</ele>
        <time>2011-09-07T07:09:36Z</time>
      </trkpt>
      <trkpt lat="45.1939" lon="5.63814">
        <ele>976</ele>
        <time>2011-09-07T07:09:42Z</time>
      </trkpt>
      <trkpt lat="45.19384" lon="5.6382">
        <ele>976</ele>
        <time>2011-09-07T07:09:46Z</time>
      </trkpt>
      <trkpt lat="45.19385" lon="5.63832">
        <ele>976</ele>
        <time>2011-09-07T07:09:49Z</time>
      </trkpt>
      <trkpt lat="45.19394" lon="5.63851">
        <ele>980</ele>
        <time>2011-09-07T07:09:54Z</time>
      </trkpt>
      <trkpt lat="45.19403" lon="5.63867">
        <ele>981</ele>
        <time>2011-09-07T07:10:01Z</time>
      </trkpt>
      <trkpt lat="45.19417" lon="5.63876">
        <ele>981</ele>
        <time>2011-09-07T07:10:08Z</time>
      </trkpt>
      <trkpt lat="45.19425" lon="5.63878">
        <ele>971</ele>
        <time>2011-09-07T07:10:12Z</time>
      </trkpt>
      <trkpt lat="45.19432" lon="5.63878">
        <ele>971</ele>
        <time>2011-09-07T07:10:14Z</time>
      </trkpt>
      <trkpt lat="45.19454" lon="5.63903">
        <ele>971</ele>
        <time>2011-09-07T07:10:24Z</time>
      </trkpt>
      <trkpt lat="45.19459" lon="5.63909">
        <ele>971</ele>
        <time>2011-09-07T07:10:25Z</time>
      </trkpt>
      <trkpt lat="45.19466" lon="5.63927">
        <ele>977</ele>
        <time>2011-09-07T07:10:32Z</time>
      </trkpt>
      <trkpt lat="45.19472" lon="5.63946">
        <ele>977</ele>
        <time>2011-09-07T07:10:36Z</time>
      </trkpt>
      <trkpt lat="45.19476" lon="5.63955">
        <ele>977</ele>
        <time>2011-09-07T07:10:39Z</time>
      </trkpt>
      <trkpt lat="45.19478" lon="5.63966">
        <ele>978</ele>
        <time>2011-09-07T07:10:42Z</time>
      </trkpt>
      <trkpt lat="45.19483" lon="5.63974">
        <ele>978</ele>
        <time>2011-09-07T07:10:45Z</time>
      </trkpt>
      <trkpt lat="45.19501" lon="5.64001">
        <ele>977</ele>
        <time>2011-09-07T07:10:56Z</time>
      </trkpt>
      <trkpt lat="45.19511" lon="5.64019">
        <ele>974</ele>
        <time>2011-09-07T07:11:03Z</time>
      </trkpt>
      <trkpt lat="45.19521" lon="5.64044">
        <ele>974</ele>
        <time>2011-09-07T07:11:10Z</time>
      </trkpt>
      <trkpt lat="45.19531" lon="5.64061">
        <ele>974</ele>
        <time>2011-09-07T07:11:16Z</time>
      </trkpt>
      <trkpt lat="45.19533" lon="5.64071">
        <ele>975</ele>
        <time>2011-09-07T07:11:19Z</time>
      </trkpt>
      <trkpt lat="45.19547" lon="5.641">
        <ele>981</ele>
        <time>2011-09-07T07:11:28Z</time>
      </trkpt>
      <trkpt lat="45.19551" lon="5.64108">
        <ele>981</ele>
        <time>2011-09-07T07:11:31Z</time>
      </trkpt>
      <trkpt lat="45.19555" lon="5.64137">
        <ele>983</ele>
        <time>2011-09-07T07:11:40Z</time>
      </trkpt>
      <trkpt lat="45.19556" lon="5.64158">
        <ele>984</ele>
        <time>2011-09-07T07:11:48Z</time>
      </trkpt>
      <trkpt lat="45.19556" lon="5.64177">
        <ele>990</ele>
        <time>2011-09-07T07:11:53Z</time>
      </trkpt>
      <trkpt lat="45.19554" lon="5.64186">
        <ele>991</ele>
        <time>2011-09-07T07:11:57Z</time>
      </trkpt>
      <trkpt lat="45.19554" lon="5.64209">
        <ele>992</ele>
        <time>2011-09-07T07:12:04Z</time>
      </trkpt>
      <trkpt lat="45.19552" lon="5.64219">
        <ele>993</ele>
        <time>2011-09-07T07:12:07Z</time>
      </trkpt>
      <trkpt lat="45.19556" lon="5.64236">
        <ele>994</ele>
        <time>2011-09-07T07:12:14Z</time>
      </trkpt>
      <trkpt lat="45.19565" lon="5.64254">
        <ele>999</ele>
        <time>2011-09-07T07:12:23Z</time>
      </trkpt>
      <trkpt lat="45.19568" lon="5.64273">
        <ele>1000</ele>
        <time>2011-09-07T07:12:29Z</time>
      </trkpt>
      <trkpt lat="45.19569" lon="5.64283">
        <ele>1001</ele>
        <time>2011-09-07T07:12:31Z</time>
      </trkpt>
      <trkpt lat="45.19576" lon="5.64288">
        <ele>1001</ele>
        <time>2011-09-07T07:12:33Z</time>
      </trkpt>
      <trkpt lat="45.19586" lon="5.64303">
        <ele>991</ele>
        <time>2011-09-07T07:12:40Z</time>
      </trkpt>
      <trkpt lat="45.19594" lon="5.64308">
        <ele>992</ele>
        <time>2011-09-07T07:12:43Z</time>
      </trkpt>
      <trkpt lat="45.19594" lon="5.64308">
        <ele>992</ele>
        <time>2011-09-07T07:12:55Z</time>
      </trkpt>
      <trkpt lat="45.19594" lon="5.64308">
        <ele>992</ele>
        <time>2011-09-07T07:12:55Z</time>
      </trkpt>
      <trkpt lat="45.19614" lon="5.64333">
        <ele>990</ele>
        <time>2011-09-07T07:12:57Z</time>
      </trkpt>
      <trkpt lat="45.1962" lon="5.6434">
        <ele>995</ele>
        <time>2011-09-07T07:12:58Z</time>
      </trkpt>
      <trkpt lat="45.19621" lon="5.64349">
        <ele>996</ele>
        <time>2011-09-07T07:13:04Z</time>
      </trkpt>
      <trkpt lat="45.19625" lon="5.6436">
        <ele>996</ele>
        <time>2011-09-07T07:13:07Z</time>
      </trkpt>
      <trkpt lat="45.19621" lon="5.6437">
        <ele>996</ele>
        <time>2011-09-07T07:13:11Z</time>
      </trkpt>
      <trkpt lat="45.19625" lon="5.64379">
        <ele>996</ele>
        <time>2011-09-07T07:13:14Z</time>
      </trkpt>
      <trkpt lat="45.19634" lon="5.64405">
        <ele>997</ele>
        <time>2011-09-07T07:13:24Z</time>
      </trkpt>
      <trkpt lat="45.19637" lon="5.64415">
        <ele>996</ele>
        <time>2011-09-07T07:13:28Z</time>
      </trkpt>
      <trkpt lat="45.19642" lon="5.64421">
        <ele>1003</ele>
        <time>2011-09-07T07:13:30Z</time>
      </trkpt>
      <trkpt lat="45.19656" lon="5.64434">
        <ele>1002</ele>
        <time>2011-09-07T07:13:36Z</time>
      </trkpt>
      <trkpt lat="45.19664" lon="5.6444">
        <ele>1003</ele>
        <time>2011-09-07T07:13:39Z</time>
      </trkpt>
      <trkpt lat="45.19669" lon="5.64447">
        <ele>993</ele>
        <time>2011-09-07T07:13:42Z</time>
      </trkpt>
      <trkpt lat="45.19678" lon="5.64463">
        <ele>994</ele>
        <time>2011-09-07T07:13:49Z</time>
      </trkpt>
      <trkpt lat="45.19687" lon="5.64479">
        <ele>995</ele>
        <time>2011-09-07T07:13:55Z</time>
      </trkpt>
      <trkpt lat="45.19691" lon="5.64487">
        <ele>996</ele>
        <time>2011-09-07T07:13:58Z</time>
      </trkpt>
      <trkpt lat="45.19696" lon="5.64494">
        <ele>995</ele>
        <time>2011-09-07T07:14:02Z</time>
      </trkpt>
      <trkpt lat="45.19704" lon="5.64511">
        <ele>1004</ele>
        <time>2011-09-07T07:14:08Z</time>
      </trkpt>
      <trkpt lat="45.19715" lon="5.64528">
        <ele>1003</ele>
        <time>2011-09-07T07:14:15Z</time>
      </trkpt>
      <trkpt lat="45.19719" lon="5.6454">
        <ele>1004</ele>
        <time>2011-09-07T07:14:18Z</time>
      </trkpt>
      <trkpt lat="45.19736" lon="5.64559">
        <ele>1005</ele>
        <time>2011-09-07T07:14:25Z</time>
      </trkpt>
      <trkpt lat="45.19743" lon="5.64581">
        <ele>1005</ele>
        <time>2011-09-07T07:14:34Z</time>
      </trkpt>
      <trkpt lat="45.19758" lon="5.64603">
        <ele>1005</ele>
        <time>2011-09-07T07:14:45Z</time>
      </trkpt>
      <trkpt lat="45.19765" lon="5.64607">
        <ele>1005</ele>
        <time>2011-09-07T07:14:49Z</time>
      </trkpt>
      <trkpt lat="45.19765" lon="5.64607">
        <ele>1005</ele>
        <time>2011-09-07T07:15:01Z</time>
      </trkpt>
      <trkpt lat="45.19765" lon="5.64607">
        <ele>1005</ele>
        <time>2011-09-07T07:16:47Z</time>
      </trkpt>
      <trkpt lat="45.19765" lon="5.64607">
        <ele>1005</ele>
        <time>2011-09-07T07:16:59Z</time>
      </trkpt>
      <trkpt lat="45.19765" lon="5.64607">
        <ele>1005</ele>
        <time>2011-09-07T07:18:45Z</time>
      </trkpt>
      <trkpt lat="45.19765" lon="5.64607">
        <ele>1005</ele>
        <time>2011-09-07T07:18:57Z</time>
      </trkpt>
      <trkpt lat="45.19765" lon="5.64607">
        <ele>1005</ele>
        <time>2011-09-07T07:19:00Z</time>
      </trkpt>
      <trkpt lat="45.19835" lon="5.64631">
        <ele>989</ele>
        <time>2011-09-07T07:19:03Z</time>
      </trkpt>
      <trkpt lat="45.19865" lon="5.6467">
        <ele>997</ele>
        <time>2011-09-07T07:19:07Z</time>
      </trkpt>
      <trkpt lat="45.19878" lon="5.64689">
        <ele>995</ele>
        <time>2011-09-07T07:19:09Z</time>
      </trkpt>
      <trkpt lat="45.19923" lon="5.6473">
        <ele>979</ele>
        <time>2011-09-07T07:19:15Z</time>
      </trkpt>
      <trkpt lat="45.19941" lon="5.64723">
        <ele>974</ele>
        <time>2011-09-07T07:19:19Z</time>
      </trkpt>
      <trkpt lat="45.19948" lon="5.64717">
        <ele>972</ele>
        <time>2011-09-07T07:19:21Z</time>
      </trkpt>
      <trkpt lat="45.19979" lon="5.64727">
        <ele>968</ele>
        <time>2011-09-07T07:19:26Z</time>
      </trkpt>
      <trkpt lat="45.2002" lon="5.64779">
        <ele>953</ele>
        <time>2011-09-07T07:19:31Z</time>
      </trkpt>
      <trkpt lat="45.20038" lon="5.64826">
        <ele>951</ele>
        <time>2011-09-07T07:19:35Z</time>
      </trkpt>
      <trkpt lat="45.20042" lon="5.64834">
        <ele>955</ele>
        <time>2011-09-07T07:19:36Z</time>
      </trkpt>
      <trkpt lat="45.20056" lon="5.64869">
        <ele>953</ele>
        <time>2011-09-07T07:19:43Z</time>
      </trkpt>
      <trkpt lat="45.20065" lon="5.64889">
        <ele>952</ele>
        <time>2011-09-07T07:19:46Z</time>
      </trkpt>
      <trkpt lat="45.2008" lon="5.64919">
        <ele>943</ele>
        <time>2011-09-07T07:19:51Z</time>
      </trkpt>
      <trkpt lat="45.20096" lon="5.64976">
        <ele>928</ele>
        <time>2011-09-07T07:19:55Z</time>
      </trkpt>
      <trkpt lat="45.20114" lon="5.65021">
        <ele>925</ele>
        <time>2011-09-07T07:19:59Z</time>
      </trkpt>
      <trkpt lat="45.20132" lon="5.6506">
        <ele>919</ele>
        <time>2011-09-07T07:20:03Z</time>
      </trkpt>
      <trkpt lat="45.20136" lon="5.65091">
        <ele>909</ele>
        <time>2011-09-07T07:20:07Z</time>
      </trkpt>
      <trkpt lat="45.20133" lon="5.65103">
        <ele>909</ele>
        <time>2011-09-07T07:20:10Z</time>
      </trkpt>
      <trkpt lat="45.20135" lon="5.65115">
        <ele>908</ele>
        <time>2011-09-07T07:20:14Z</time>
      </trkpt>
      <trkpt lat="45.20149" lon="5.65111">
        <ele>906</ele>
        <time>2011-09-07T07:20:21Z</time>
      </trkpt>
      <trkpt lat="45.20174" lon="5.65123">
        <ele>884</ele>
        <time>2011-09-07T07:20:27Z</time>
      </trkpt>
      <trkpt lat="45.2018" lon="5.65128">
        <ele>883</ele>
        <time>2011-09-07T07:20:28Z</time>
      </trkpt>
      <trkpt lat="45.20165" lon="5.65156">
        <ele>896</ele>
        <time>2011-09-07T07:20:34Z</time>
      </trkpt>
      <trkpt lat="45.20165" lon="5.65174">
        <ele>887</ele>
        <time>2011-09-07T07:20:39Z</time>
      </trkpt>
      <trkpt lat="45.20171" lon="5.6519">
        <ele>872</ele>
        <time>2011-09-07T07:20:43Z</time>
      </trkpt>
      <trkpt lat="45.20184" lon="5.65209">
        <ele>865</ele>
        <time>2011-09-07T07:20:48Z</time>
      </trkpt>
      <trkpt lat="45.2021" lon="5.65228">
        <ele>859</ele>
        <time>2011-09-07T07:20:55Z</time>
      </trkpt>
      <trkpt lat="45.2021" lon="5.65228">
        <ele>859</ele>
        <time>2011-09-07T07:21:07Z</time>
      </trkpt>
      <trkpt lat="45.2021" lon="5.65228">
        <ele>859</ele>
        <time>2011-09-07T07:22:31Z</time>
      </trkpt>
      <trkpt lat="45.2021" lon="5.65228">
        <ele>859</ele>
        <time>2011-09-07T07:22:43Z</time>
      </trkpt>
      <trkpt lat="45.2021" lon="5.65228">
        <ele>859</ele>
        <time>2011-09-07T07:23:25Z</time>
      </trkpt>
      <trkpt lat="45.20202" lon="5.65246">
        <ele>859</ele>
        <time>2011-09-07T07:23:27Z</time>
      </trkpt>
      <trkpt lat="45.20183" lon="5.65266">
        <ele>849</ele>
        <time>2011-09-07T07:23:31Z</time>
      </trkpt>
      <trkpt lat="45.20155" lon="5.65271">
        <ele>856</ele>
        <time>2011-09-07T07:23:35Z</time>
      </trkpt>
      <trkpt lat="45.20126" lon="5.65269">
        <ele>857</ele>
        <time>2011-09-07T07:23:39Z</time>
      </trkpt>
      <trkpt lat="45.2012" lon="5.6527">
        <ele>857</ele>
        <time>2011-09-07T07:23:40Z</time>
      </trkpt>
      <trkpt lat="45.20098" lon="5.65267">
        <ele>860</ele>
        <time>2011-09-07T07:23:46Z</time>
      </trkpt>
      <trkpt lat="45.20065" lon="5.65293">
        <ele>859</ele>
        <time>2011-09-07T07:23:51Z</time>
      </trkpt>
      <trkpt lat="45.20049" lon="5.65303">
        <ele>858</ele>
        <time>2011-09-07T07:23:53Z</time>
      </trkpt>
      <trkpt lat="45.20014" lon="5.65312">
        <ele>856</ele>
        <time>2011-09-07T07:23:58Z</time>
      </trkpt>
      <trkpt lat="45.19991" lon="5.65325">
        <ele>854</ele>
        <time>2011-09-07T07:24:02Z</time>
      </trkpt>
      <trkpt lat="45.19981" lon="5.65341">
        <ele>841</ele>
        <time>2011-09-07T07:24:06Z</time>
      </trkpt>
      <trkpt lat="45.19962" lon="5.65349">
        <ele>839</ele>
        <time>2011-09-07T07:24:10Z</time>
      </trkpt>
      <trkpt lat="45.19953" lon="5.65348">
        <ele>839</ele>
        <time>2011-09-07T07:24:13Z</time>
      </trkpt>
      <trkpt lat="45.19922" lon="5.65347">
        <ele>842</ele>
        <time>2011-09-07T07:24:18Z</time>
      </trkpt>
      <trkpt lat="45.19902" lon="5.65347">
        <ele>840</ele>
        <time>2011-09-07T07:24:21Z</time>
      </trkpt>
      <trkpt lat="45.19883" lon="5.65366">
        <ele>835</ele>
        <time>2011-09-07T07:24:27Z</time>
      </trkpt>
      <trkpt lat="45.19869" lon="5.65376">
        <ele>833</ele>
        <time>2011-09-07T07:24:33Z</time>
      </trkpt>
      <trkpt lat="45.19849" lon="5.65381">
        <ele>831</ele>
        <time>2011-09-07T07:24:38Z</time>
      </trkpt>
      <trkpt lat="45.19829" lon="5.65386">
        <ele>827</ele>
        <time>2011-09-07T07:24:42Z</time>
      </trkpt>
      <trkpt lat="45.1981" lon="5.65404">
        <ele>823</ele>
        <time>2011-09-07T07:24:47Z</time>
      </trkpt>
      <trkpt lat="45.19792" lon="5.65421">
        <ele>796</ele>
        <time>2011-09-07T07:24:50Z</time>
      </trkpt>
      <trkpt lat="45.19774" lon="5.65437">
        <ele>794</ele>
        <time>2011-09-07T07:24:54Z</time>
      </trkpt>
      <trkpt lat="45.19752" lon="5.65454">
        <ele>790</ele>
        <time>2011-09-07T07:24:59Z</time>
      </trkpt>
      <trkpt lat="45.19741" lon="5.65454">
        <ele>786</ele>
        <time>2011-09-07T07:25:01Z</time>
      </trkpt>
      <trkpt lat="45.19723" lon="5.65451">
        <ele>786</ele>
        <time>2011-09-07T07:25:04Z</time>
      </trkpt>
      <trkpt lat="45.19689" lon="5.65457">
        <ele>783</ele>
        <time>2011-09-07T07:25:10Z</time>
      </trkpt>
      <trkpt lat="45.19689" lon="5.65457">
        <ele>783</ele>
        <time>2011-09-07T07:25:22Z</time>
      </trkpt>
      <trkpt lat="45.19689" lon="5.65457">
        <ele>783</ele>
        <time>2011-09-07T07:25:34Z</time>
      </trkpt>
      <trkpt lat="45.19675" lon="5.65462">
        <ele>781</ele>
        <time>2011-09-07T07:25:36Z</time>
      </trkpt>
      <trkpt lat="45.19667" lon="5.65464">
        <ele>780</ele>
        <time>2011-09-07T07:25:38Z</time>
      </trkpt>
      <trkpt lat="45.19641" lon="5.65468">
        <ele>768</ele>
        <time>2011-09-07T07:25:44Z</time>
      </trkpt>
      <trkpt lat="45.19624" lon="5.65467">
        <ele>765</ele>
        <time>2011-09-07T07:25:48Z</time>
      </trkpt>
      <trkpt lat="45.19608" lon="5.65467">
        <ele>763</ele>
        <time>2011-09-07T07:25:51Z</time>
      </trkpt>
      <trkpt lat="45.19592" lon="5.65469">
        <ele>759</ele>
        <time>2011-09-07T07:25:55Z</time>
      </trkpt>
      <trkpt lat="45.19575" lon="5.65463">
        <ele>750</ele>
        <time>2011-09-07T07:26:00Z</time>
      </trkpt>
      <trkpt lat="45.19575" lon="5.65463">
        <ele>750</ele>
        <time>2011-09-07T07:26:12Z</time>
      </trkpt>
      <trkpt lat="45.19575" lon="5.65463">
        <ele>750</ele>
        <time>2011-09-07T07:29:34Z</time>
      </trkpt>
      <trkpt lat="45.19554" lon="5.65472">
        <ele>746</ele>
        <time>2011-09-07T07:29:38Z</time>
      </trkpt>
      <trkpt lat="45.19546" lon="5.65472">
        <ele>745</ele>
        <time>2011-09-07T07:29:42Z</time>
      </trkpt>
      <trkpt lat="45.19538" lon="5.65473">
        <ele>744</ele>
        <time>2011-09-07T07:29:46Z</time>
      </trkpt>
      <trkpt lat="45.19532" lon="5.65475">
        <ele>742</ele>
        <time>2011-09-07T07:29:51Z</time>
      </trkpt>
      <trkpt lat="45.19525" lon="5.65477">
        <ele>740</ele>
        <time>2011-09-07T07:29:56Z</time>
      </trkpt>
      <trkpt lat="45.19518" lon="5.65479">
        <ele>738</ele>
        <time>2011-09-07T07:30:00Z</time>
      </trkpt>
      <trkpt lat="45.19496" lon="5.65481">
        <ele>724</ele>
        <time>2011-09-07T07:30:10Z</time>
      </trkpt>
      <trkpt lat="45.19478" lon="5.65488">
        <ele>724</ele>
        <time>2011-09-07T07:30:14Z</time>
      </trkpt>
      <trkpt lat="45.19463" lon="5.65503">
        <ele>691</ele>
        <time>2011-09-07T07:30:18Z</time>
      </trkpt>
      <trkpt lat="45.19433" lon="5.65501">
        <ele>687</ele>
        <time>2011-09-07T07:30:23Z</time>
      </trkpt>
      <trkpt lat="45.19415" lon="5.65496">
        <ele>693</ele>
        <time>2011-09-07T07:30:27Z</time>
      </trkpt>
      <trkpt lat="45.19397" lon="5.65489">
        <ele>700</ele>
        <time>2011-09-07T07:30:32Z</time>
      </trkpt>
      <trkpt lat="45.19396" lon="5.65501">
        <ele>675</ele>
        <time>2011-09-07T07:30:40Z</time>
      </trkpt>
      <trkpt lat="45.19396" lon="5.65501">
        <ele>675</ele>
        <time>2011-09-07T07:30:52Z</time>
      </trkpt>
      <trkpt lat="45.19396" lon="5.65501">
        <ele>675</ele>
        <time>2011-09-07T07:30:57Z</time>
      </trkpt>
      <trkpt lat="45.19389" lon="5.65527">
        <ele>668</ele>
        <time>2011-09-07T07:31:01Z</time>
      </trkpt>
      <trkpt lat="45.19393" lon="5.65552">
        <ele>662</ele>
        <time>2011-09-07T07:31:06Z</time>
      </trkpt>
      <trkpt lat="45.19396" lon="5.65564">
        <ele>661</ele>
        <time>2011-09-07T07:31:07Z</time>
      </trkpt>
      <trkpt lat="45.19414" lon="5.65603">
        <ele>641</ele>
        <time>2011-09-07T07:31:13Z</time>
      </trkpt>
      <trkpt lat="45.19427" lon="5.65629">
        <ele>640</ele>
        <time>2011-09-07T07:31:16Z</time>
      </trkpt>
      <trkpt lat="45.19413" lon="5.6567">
        <ele>616</ele>
        <time>2011-09-07T07:31:25Z</time>
      </trkpt>
      <trkpt lat="45.19413" lon="5.6567">
        <ele>616</ele>
        <time>2011-09-07T07:31:37Z</time>
      </trkpt>
      <trkpt lat="45.19413" lon="5.6567">
        <ele>616</ele>
        <time>2011-09-07T07:32:02Z</time>
      </trkpt>
      <trkpt lat="45.19422" lon="5.65712">
        <ele>611</ele>
        <time>2011-09-07T07:32:12Z</time>
      </trkpt>
      <trkpt lat="45.19421" lon="5.65734">
        <ele>607</ele>
        <time>2011-09-07T07:32:15Z</time>
      </trkpt>
      <trkpt lat="45.19403" lon="5.65754">
        <ele>589</ele>
        <time>2011-09-07T07:32:22Z</time>
      </trkpt>
      <trkpt lat="45.19398" lon="5.6576">
        <ele>585</ele>
        <time>2011-09-07T07:32:25Z</time>
      </trkpt>
      <trkpt lat="45.19392" lon="5.65766">
        <ele>581</ele>
        <time>2011-09-07T07:32:31Z</time>
      </trkpt>
      <trkpt lat="45.19371" lon="5.65772">
        <ele>575</ele>
        <time>2011-09-07T07:32:43Z</time>
      </trkpt>
      <trkpt lat="45.19361" lon="5.65774">
        <ele>573</ele>
        <time>2011-09-07T07:32:47Z</time>
      </trkpt>
      <trkpt lat="45.19361" lon="5.65774">
        <ele>573</ele>
        <time>2011-09-07T07:32:59Z</time>
      </trkpt>
      <trkpt lat="45.19361" lon="5.65774">
        <ele>573</ele>
        <time>2011-09-07T07:33:22Z</time>
      </trkpt>
      <trkpt lat="45.1934" lon="5.65786">
        <ele>569</ele>
        <time>2011-09-07T07:33:25Z</time>
      </trkpt>
      <trkpt lat="45.19326" lon="5.6579">
        <ele>559</ele>
        <time>2011-09-07T07:33:30Z</time>
      </trkpt>
      <trkpt lat="45.19319" lon="5.65785">
        <ele>560</ele>
        <time>2011-09-07T07:33:33Z</time>
      </trkpt>
      <trkpt lat="45.19313" lon="5.65789">
        <ele>559</ele>
        <time>2011-09-07T07:33:38Z</time>
      </trkpt>
      <trkpt lat="45.19307" lon="5.65787">
        <ele>559</ele>
        <time>2011-09-07T07:33:42Z</time>
      </trkpt>
      <trkpt lat="45.19299" lon="5.65788">
        <ele>558</ele>
        <time>2011-09-07T07:33:45Z</time>
      </trkpt>
      <trkpt lat="45.19293" lon="5.65792">
        <ele>557</ele>
        <time>2011-09-07T07:33:48Z</time>
      </trkpt>
      <trkpt lat="45.19286" lon="5.65796">
        <ele>556</ele>
        <time>2011-09-07T07:33:55Z</time>
      </trkpt>
      <trkpt lat="45.19279" lon="5.65804">
        <ele>555</ele>
        <time>2011-09-07T07:33:58Z</time>
      </trkpt>
      <trkpt lat="45.19279" lon="5.65804">
        <ele>555</ele>
        <time>2011-09-07T07:34:10Z</time>
      </trkpt>
      <trkpt lat="45.19279" lon="5.65804">
        <ele>555</ele>
        <time>2011-09-07T07:35:07Z</time>
      </trkpt>
      <trkpt lat="45.19261" lon="5.65826">
        <ele>547</ele>
        <time>2011-09-07T07:35:08Z</time>
      </trkpt>
      <trkpt lat="45.19256" lon="5.65832">
        <ele>544</ele>
        <time>2011-09-07T07:35:10Z</time>
      </trkpt>
      <trkpt lat="45.19248" lon="5.65838">
        <ele>538</ele>
        <time>2011-09-07T07:35:13Z</time>
      </trkpt>
      <trkpt lat="45.19234" lon="5.65849">
        <ele>536</ele>
        <time>2011-09-07T07:35:17Z</time>
      </trkpt>
      <trkpt lat="45.19212" lon="5.65862">
        <ele>534</ele>
        <time>2011-09-07T07:35:24Z</time>
      </trkpt>
      <trkpt lat="45.19205" lon="5.65869">
        <ele>534</ele>
        <time>2011-09-07T07:35:26Z</time>
      </trkpt>
      <trkpt lat="45.19194" lon="5.65896">
        <ele>531</ele>
        <time>2011-09-07T07:35:31Z</time>
      </trkpt>
      <trkpt lat="45.19194" lon="5.65896">
        <ele>531</ele>
        <time>2011-09-07T07:35:43Z</time>
      </trkpt>
      <trkpt lat="45.19194" lon="5.65896">
        <ele>531</ele>
        <time>2011-09-07T07:35:47Z</time>
      </trkpt>
      <trkpt lat="45.19194" lon="5.65896">
        <ele>531</ele>
        <time>2011-09-07T07:35:59Z</time>
      </trkpt>
      <trkpt lat="45.19194" lon="5.65896">
        <ele>531</ele>
        <time>2011-09-07T07:36:00Z</time>
      </trkpt>
      <trkpt lat="45.1914" lon="5.65953">
        <ele>518</ele>
        <time>2011-09-07T07:36:07Z</time>
      </trkpt>
      <trkpt lat="45.19129" lon="5.65962">
        <ele>516</ele>
        <time>2011-09-07T07:36:08Z</time>
      </trkpt>
      <trkpt lat="45.19088" lon="5.6596">
        <ele>516</ele>
        <time>2011-09-07T07:36:15Z</time>
      </trkpt>
      <trkpt lat="45.19072" lon="5.65962">
        <ele>510</ele>
        <time>2011-09-07T07:36:19Z</time>
      </trkpt>
      <trkpt lat="45.19054" lon="5.65958">
        <ele>510</ele>
        <time>2011-09-07T07:36:23Z</time>
      </trkpt>
      <trkpt lat="45.19032" lon="5.6596">
        <ele>508</ele>
        <time>2011-09-07T07:36:27Z</time>
      </trkpt>
      <trkpt lat="45.19014" lon="5.65963">
        <ele>507</ele>
        <time>2011-09-07T07:36:30Z</time>
      </trkpt>
      <trkpt lat="45.18989" lon="5.65991">
        <ele>496</ele>
        <time>2011-09-07T07:36:35Z</time>
      </trkpt>
      <trkpt lat="45.18985" lon="5.66001">
        <ele>488</ele>
        <time>2011-09-07T07:36:37Z</time>
      </trkpt>
      <trkpt lat="45.18993" lon="5.6602">
        <ele>487</ele>
        <time>2011-09-07T07:36:42Z</time>
      </trkpt>
      <trkpt lat="45.1899" lon="5.66036">
        <ele>485</ele>
        <time>2011-09-07T07:36:45Z</time>
      </trkpt>
      <trkpt lat="45.18976" lon="5.6603">
        <ele>486</ele>
        <time>2011-09-07T07:36:50Z</time>
      </trkpt>
      <trkpt lat="45.18961" lon="5.66024">
        <ele>486</ele>
        <time>2011-09-07T07:36:55Z</time>
      </trkpt>
      <trkpt lat="45.18946" lon="5.66024">
        <ele>487</ele>
        <time>2011-09-07T07:36:59Z</time>
      </trkpt>
      <trkpt lat="45.18939" lon="5.66025">
        <ele>487</ele>
        <time>2011-09-07T07:37:00Z</time>
      </trkpt>
      <trkpt lat="45.18913" lon="5.66029">
        <ele>488</ele>
        <time>2011-09-07T07:37:07Z</time>
      </trkpt>
      <trkpt lat="45.18898" lon="5.66048">
        <ele>487</ele>
        <time>2011-09-07T07:37:10Z</time>
      </trkpt>
      <trkpt lat="45.18886" lon="5.66064">
        <ele>486</ele>
        <time>2011-09-07T07:37:15Z</time>
      </trkpt>
      <trkpt lat="45.18877" lon="5.66067">
        <ele>486</ele>
        <time>2011-09-07T07:37:17Z</time>
      </trkpt>
      <trkpt lat="45.18849" lon="5.66096">
        <ele>478</ele>
        <time>2011-09-07T07:37:23Z</time>
      </trkpt>
      <trkpt lat="45.18847" lon="5.66105">
        <ele>478</ele>
        <time>2011-09-07T07:37:25Z</time>
      </trkpt>
      <trkpt lat="45.18837" lon="5.66138">
        <ele>477</ele>
        <time>2011-09-07T07:37:31Z</time>
      </trkpt>
      <trkpt lat="45.18831" lon="5.6615">
        <ele>476</ele>
        <time>2011-09-07T07:37:34Z</time>
      </trkpt>
      <trkpt lat="45.18826" lon="5.6617">
        <ele>475</ele>
        <time>2011-09-07T07:37:38Z</time>
      </trkpt>
      <trkpt lat="45.1883" lon="5.66218">
        <ele>477</ele>
        <time>2011-09-07T07:37:47Z</time>
      </trkpt>
      <trkpt lat="45.1883" lon="5.66245">
        <ele>476</ele>
        <time>2011-09-07T07:37:52Z</time>
      </trkpt>
      <trkpt lat="45.1883" lon="5.66245">
        <ele>476</ele>
        <time>2011-09-07T07:38:03Z</time>
      </trkpt>
      <trkpt lat="45.1883" lon="5.66245">
        <ele>476</ele>
        <time>2011-09-07T07:38:09Z</time>
      </trkpt>
      <trkpt lat="45.18849" lon="5.663">
        <ele>469</ele>
        <time>2011-09-07T07:38:14Z</time>
      </trkpt>
      <trkpt lat="45.18878" lon="5.66305">
        <ele>467</ele>
        <time>2011-09-07T07:38:18Z</time>
      </trkpt>
      <trkpt lat="45.18888" lon="5.66313">
        <ele>466</ele>
        <time>2011-09-07T07:38:20Z</time>
      </trkpt>
      <trkpt lat="45.18903" lon="5.66346">
        <ele>459</ele>
        <time>2011-09-07T07:38:25Z</time>
      </trkpt>
      <trkpt lat="45.18883" lon="5.66399">
        <ele>457</ele>
        <time>2011-09-07T07:38:30Z</time>
      </trkpt>
      <trkpt lat="45.18882" lon="5.66438">
        <ele>449</ele>
        <time>2011-09-07T07:38:33Z</time>
      </trkpt>
      <trkpt lat="45.18898" lon="5.66472">
        <ele>446</ele>
        <time>2011-09-07T07:38:38Z</time>
      </trkpt>
      <trkpt lat="45.18894" lon="5.66487">
        <ele>445</ele>
        <time>2011-09-07T07:38:43Z</time>
      </trkpt>
      <trkpt lat="45.18871" lon="5.6648">
        <ele>446</ele>
        <time>2011-09-07T07:38:46Z</time>
      </trkpt>
      <trkpt lat="45.18847" lon="5.66493">
        <ele>443</ele>
        <time>2011-09-07T07:38:50Z</time>
      </trkpt>
      <trkpt lat="45.18834" lon="5.66539">
        <ele>434</ele>
        <time>2011-09-07T07:38:55Z</time>
      </trkpt>
      <trkpt lat="45.18821" lon="5.66568">
        <ele>433</ele>
        <time>2011-09-07T07:38:58Z</time>
      </trkpt>
      <trkpt lat="45.18802" lon="5.66616">
        <ele>426</ele>
        <time>2011-09-07T07:39:02Z</time>
      </trkpt>
      <trkpt lat="45.18798" lon="5.66669">
        <ele>417</ele>
        <time>2011-09-07T07:39:07Z</time>
      </trkpt>
      <trkpt lat="45.18794" lon="5.66702">
        <ele>415</ele>
        <time>2011-09-07T07:39:10Z</time>
      </trkpt>
      <trkpt lat="45.18809" lon="5.66751">
        <ele>406</ele>
        <time>2011-09-07T07:39:14Z</time>
      </trkpt>
      <trkpt lat="45.18824" lon="5.66783">
        <ele>405</ele>
        <time>2011-09-07T07:39:18Z</time>
      </trkpt>
      <trkpt lat="45.18818" lon="5.66833">
        <ele>404</ele>
        <time>2011-09-07T07:39:22Z</time>
      </trkpt>
      <trkpt lat="45.18817" lon="5.66846">
        <ele>403</ele>
        <time>2011-09-07T07:39:24Z</time>
      </trkpt>
      <trkpt lat="45.1881" lon="5.66876">
        <ele>403</ele>
        <time>2011-09-07T07:39:29Z</time>
      </trkpt>
      <trkpt lat="45.18802" lon="5.66894">
        <ele>404</ele>
        <time>2011-09-07T07:39:35Z</time>
      </trkpt>
      <trkpt lat="45.18798" lon="5.66904">
        <ele>404</ele>
        <time>2011-09-07T07:39:37Z</time>
      </trkpt>
      <trkpt lat="45.18794" lon="5.66922">
        <ele>407</ele>
        <time>2011-09-07T07:39:40Z</time>
      </trkpt>
      <trkpt lat="45.18784" lon="5.66942">
        <ele>407</ele>
        <time>2011-09-07T07:39:46Z</time>
      </trkpt>
      <trkpt lat="45.18777" lon="5.66948">
        <ele>407</ele>
        <time>2011-09-07T07:39:49Z</time>
      </trkpt>
      <trkpt lat="45.18753" lon="5.66951">
        <ele>407</ele>
        <time>2011-09-07T07:39:59Z</time>
      </trkpt>
      <trkpt lat="45.18747" lon="5.66949">
        <ele>406</ele>
        <time>2011-09-07T07:40:01Z</time>
      </trkpt>
      <trkpt lat="45.18731" lon="5.6695">
        <ele>406</ele>
        <time>2011-09-07T07:40:07Z</time>
      </trkpt>
      <trkpt lat="45.18719" lon="5.66961">
        <ele>407</ele>
        <time>2011-09-07T07:40:13Z</time>
      </trkpt>
      <trkpt lat="45.18719" lon="5.66961">
        <ele>407</ele>
        <time>2011-09-07T07:40:24Z</time>
      </trkpt>
      <trkpt lat="45.18719" lon="5.66961">
        <ele>407</ele>
        <time>2011-09-07T07:40:26Z</time>
      </trkpt>
      <trkpt lat="45.18695" lon="5.67001">
        <ele>409</ele>
        <time>2011-09-07T07:40:32Z</time>
      </trkpt>
      <trkpt lat="45.18694" lon="5.67011">
        <ele>409</ele>
        <time>2011-09-07T07:40:35Z</time>
      </trkpt>
      <trkpt lat="45.18691" lon="5.67031">
        <ele>409</ele>
        <time>2011-09-07T07:40:41Z</time>
      </trkpt>
      <trkpt lat="45.18693" lon="5.67057">
        <ele>409</ele>
        <time>2011-09-07T07:40:45Z</time>
      </trkpt>
      <trkpt lat="45.18688" lon="5.67068">
        <ele>409</ele>
        <time>2011-09-07T07:40:47Z</time>
      </trkpt>
      <trkpt lat="45.18672" lon="5.67078">
        <ele>409</ele>
        <time>2011-09-07T07:40:53Z</time>
      </trkpt>
      <trkpt lat="45.18667" lon="5.67084">
        <ele>409</ele>
        <time>2011-09-07T07:40:56Z</time>
      </trkpt>
      <trkpt lat="45.18658" lon="5.67099">
        <ele>409</ele>
        <time>2011-09-07T07:41:00Z</time>
      </trkpt>
      <trkpt lat="45.18651" lon="5.67106">
        <ele>409</ele>
        <time>2011-09-07T07:41:03Z</time>
      </trkpt>
      <trkpt lat="45.18643" lon="5.67115">
        <ele>409</ele>
        <time>2011-09-07T07:41:07Z</time>
      </trkpt>
      <trkpt lat="45.18629" lon="5.67126">
        <ele>409</ele>
        <time>2011-09-07T07:41:13Z</time>
      </trkpt>
      <trkpt lat="45.18622" lon="5.67128">
        <ele>409</ele>
        <time>2011-09-07T07:41:15Z</time>
      </trkpt>
      <trkpt lat="45.18615" lon="5.67131">
        <ele>410</ele>
        <time>2011-09-07T07:41:19Z</time>
      </trkpt>
      <trkpt lat="45.18601" lon="5.67139">
        <ele>410</ele>
        <time>2011-09-07T07:41:25Z</time>
      </trkpt>
      <trkpt lat="45.18594" lon="5.67142">
        <ele>411</ele>
        <time>2011-09-07T07:41:28Z</time>
      </trkpt>
      <trkpt lat="45.18572" lon="5.67154">
        <ele>414</ele>
        <time>2011-09-07T07:41:37Z</time>
      </trkpt>
      <trkpt lat="45.18563" lon="5.67158">
        <ele>415</ele>
        <time>2011-09-07T07:41:40Z</time>
      </trkpt>
      <trkpt lat="45.18551" lon="5.67166">
        <ele>416</ele>
        <time>2011-09-07T07:41:44Z</time>
      </trkpt>
      <trkpt lat="45.18543" lon="5.67172">
        <ele>412</ele>
        <time>2011-09-07T07:41:48Z</time>
      </trkpt>
      <trkpt lat="45.1853" lon="5.67187">
        <ele>412</ele>
        <time>2011-09-07T07:41:53Z</time>
      </trkpt>
      <trkpt lat="45.18518" lon="5.67203">
        <ele>412</ele>
        <time>2011-09-07T07:41:59Z</time>
      </trkpt>
      <trkpt lat="45.18505" lon="5.67216">
        <ele>412</ele>
        <time>2011-09-07T07:42:05Z</time>
      </trkpt>
      <trkpt lat="45.18499" lon="5.67225">
        <ele>417</ele>
        <time>2011-09-07T07:42:08Z</time>
      </trkpt>
      <trkpt lat="45.18492" lon="5.67232">
        <ele>417</ele>
        <time>2011-09-07T07:42:11Z</time>
      </trkpt>
      <trkpt lat="45.18485" lon="5.67237">
        <ele>417</ele>
        <time>2011-09-07T07:42:14Z</time>
      </trkpt>
      <trkpt lat="45.18469" lon="5.67244">
        <ele>418</ele>
        <time>2011-09-07T07:42:20Z</time>
      </trkpt>
      <trkpt lat="45.18453" lon="5.67249">
        <ele>419</ele>
        <time>2011-09-07T07:42:27Z</time>
      </trkpt>
      <trkpt lat="45.18444" lon="5.67252">
        <ele>419</ele>
        <time>2011-09-07T07:42:31Z</time>
      </trkpt>
      <trkpt lat="45.18435" lon="5.67254">
        <ele>420</ele>
        <time>2011-09-07T07:42:34Z</time>
      </trkpt>
      <trkpt lat="45.18421" lon="5.67257">
        <ele>421</ele>
        <time>2011-09-07T07:42:39Z</time>
      </trkpt>
      <trkpt lat="45.18406" lon="5.67262">
        <ele>424</ele>
        <time>2011-09-07T07:42:44Z</time>
      </trkpt>
      <trkpt lat="45.18382" lon="5.6726">
        <ele>425</ele>
        <time>2011-09-07T07:42:54Z</time>
      </trkpt>
      <trkpt lat="45.18372" lon="5.67249">
        <ele>424</ele>
        <time>2011-09-07T07:42:57Z</time>
      </trkpt>
      <trkpt lat="45.1836" lon="5.67234">
        <ele>425</ele>
        <time>2011-09-07T07:43:03Z</time>
      </trkpt>
      <trkpt lat="45.18334" lon="5.67227">
        <ele>425</ele>
        <time>2011-09-07T07:43:08Z</time>
      </trkpt>
      <trkpt lat="45.18315" lon="5.67224">
        <ele>425</ele>
        <time>2011-09-07T07:43:13Z</time>
      </trkpt>
      <trkpt lat="45.18301" lon="5.67211">
        <ele>424</ele>
        <time>2011-09-07T07:43:18Z</time>
      </trkpt>
      <trkpt lat="45.18265" lon="5.67197">
        <ele>423</ele>
        <time>2011-09-07T07:43:25Z</time>
      </trkpt>
      <trkpt lat="45.18247" lon="5.672">
        <ele>423</ele>
        <time>2011-09-07T07:43:29Z</time>
      </trkpt>
      <trkpt lat="45.18229" lon="5.6721">
        <ele>424</ele>
        <time>2011-09-07T07:43:33Z</time>
      </trkpt>
      <trkpt lat="45.18214" lon="5.67208">
        <ele>424</ele>
        <time>2011-09-07T07:43:37Z</time>
      </trkpt>
      <trkpt lat="45.18201" lon="5.67223">
        <ele>425</ele>
        <time>2011-09-07T07:43:41Z</time>
      </trkpt>
      <trkpt lat="45.18195" lon="5.67227">
        <ele>425</ele>
        <time>2011-09-07T07:43:43Z</time>
      </trkpt>
      <trkpt lat="45.18189" lon="5.67223">
        <ele>425</ele>
        <time>2011-09-07T07:43:47Z</time>
      </trkpt>
      <trkpt lat="45.18189" lon="5.67223">
        <ele>425</ele>
        <time>2011-09-07T07:43:59Z</time>
      </trkpt>
      <trkpt lat="45.18189" lon="5.67223">
        <ele>425</ele>
        <time>2011-09-07T07:48:41Z</time>
      </trkpt>
      <trkpt lat="45.18189" lon="5.67223">
        <ele>425</ele>
        <time>2011-09-07T07:48:52Z</time>
      </trkpt>
      <trkpt lat="45.18189" lon="5.67223">
        <ele>425</ele>
        <time>2011-09-07T07:49:22Z</time>
      </trkpt>
      <trkpt lat="45.18196" lon="5.67207">
        <ele>424</ele>
        <time>2011-09-07T07:49:26Z</time>
      </trkpt>
      <trkpt lat="45.18204" lon="5.67206">
        <ele>424</ele>
        <time>2011-09-07T07:49:30Z</time>
      </trkpt>
      <trkpt lat="45.18212" lon="5.67198">
        <ele>424</ele>
        <time>2011-09-07T07:49:33Z</time>
      </trkpt>
      <trkpt lat="45.18229" lon="5.67193">
        <ele>423</ele>
        <time>2011-09-07T07:49:38Z</time>
      </trkpt>
      <trkpt lat="45.18248" lon="5.67194">
        <ele>423</ele>
        <time>2011-09-07T07:49:41Z</time>
      </trkpt>
      <trkpt lat="45.18255" lon="5.67195">
        <ele>423</ele>
        <time>2011-09-07T07:49:44Z</time>
      </trkpt>
      <trkpt lat="45.18274" lon="5.67196">
        <ele>423</ele>
        <time>2011-09-07T07:49:48Z</time>
      </trkpt>
      <trkpt lat="45.18293" lon="5.67199">
        <ele>424</ele>
        <time>2011-09-07T07:49:52Z</time>
      </trkpt>
      <trkpt lat="45.18311" lon="5.67209">
        <ele>424</ele>
        <time>2011-09-07T07:49:58Z</time>
      </trkpt>
      <trkpt lat="45.18328" lon="5.67218">
        <ele>425</ele>
        <time>2011-09-07T07:50:02Z</time>
      </trkpt>
      <trkpt lat="45.18343" lon="5.67226">
        <ele>425</ele>
        <time>2011-09-07T07:50:06Z</time>
      </trkpt>
      <trkpt lat="45.18357" lon="5.67233">
        <ele>425</ele>
        <time>2011-09-07T07:50:10Z</time>
      </trkpt>
      <trkpt lat="45.18363" lon="5.67237">
        <ele>425</ele>
        <time>2011-09-07T07:50:12Z</time>
      </trkpt>
      <trkpt lat="45.18375" lon="5.67253">
        <ele>426</ele>
        <time>2011-09-07T07:50:15Z</time>
      </trkpt>
      <trkpt lat="45.18387" lon="5.67279">
        <ele>425</ele>
        <time>2011-09-07T07:50:22Z</time>
      </trkpt>
      <trkpt lat="45.18391" lon="5.67289">
        <ele>425</ele>
        <time>2011-09-07T07:50:24Z</time>
      </trkpt>
      <trkpt lat="45.18396" lon="5.67332">
        <ele>424</ele>
        <time>2011-09-07T07:50:29Z</time>
      </trkpt>
      <trkpt lat="45.18394" lon="5.67364">
        <ele>418</ele>
        <time>2011-09-07T07:50:32Z</time>
      </trkpt>
      <trkpt lat="45.1838" lon="5.67427">
        <ele>405</ele>
        <time>2011-09-07T07:50:38Z</time>
      </trkpt>
      <trkpt lat="45.18373" lon="5.67447">
        <ele>404</ele>
        <time>2011-09-07T07:50:40Z</time>
      </trkpt>
      <trkpt lat="45.18368" lon="5.67484">
        <ele>401</ele>
        <time>2011-09-07T07:50:46Z</time>
      </trkpt>
      <trkpt lat="45.18353" lon="5.67525">
        <ele>391</ele>
        <time>2011-09-07T07:50:50Z</time>
      </trkpt>
      <trkpt lat="45.1835" lon="5.67548">
        <ele>389</ele>
        <time>2011-09-07T07:50:53Z</time>
      </trkpt>
      <trkpt lat="45.1836" lon="5.67568">
        <ele>388</ele>
        <time>2011-09-07T07:50:57Z</time>
      </trkpt>
      <trkpt lat="45.18374" lon="5.67583">
        <ele>387</ele>
        <time>2011-09-07T07:51:02Z</time>
      </trkpt>
      <trkpt lat="45.1839" lon="5.67585">
        <ele>377</ele>
        <time>2011-09-07T07:51:06Z</time>
      </trkpt>
      <trkpt lat="45.18408" lon="5.67597">
        <ele>377</ele>
        <time>2011-09-07T07:51:10Z</time>
      </trkpt>
      <trkpt lat="45.18421" lon="5.67617">
        <ele>372</ele>
        <time>2011-09-07T07:51:13Z</time>
      </trkpt>
      <trkpt lat="45.18427" lon="5.67628">
        <ele>370</ele>
        <time>2011-09-07T07:51:15Z</time>
      </trkpt>
      <trkpt lat="45.18454" lon="5.67631">
        <ele>369</ele>
        <time>2011-09-07T07:51:22Z</time>
      </trkpt>
      <trkpt lat="45.18467" lon="5.67627">
        <ele>369</ele>
        <time>2011-09-07T07:51:24Z</time>
      </trkpt>
      <trkpt lat="45.18501" lon="5.67631">
        <ele>366</ele>
        <time>2011-09-07T07:51:30Z</time>
      </trkpt>
      <trkpt lat="45.18516" lon="5.67641">
        <ele>365</ele>
        <time>2011-09-07T07:51:34Z</time>
      </trkpt>
      <trkpt lat="45.18521" lon="5.67657">
        <ele>363</ele>
        <time>2011-09-07T07:51:37Z</time>
      </trkpt>
      <trkpt lat="45.18526" lon="5.67672">
        <ele>356</ele>
        <time>2011-09-07T07:51:39Z</time>
      </trkpt>
      <trkpt lat="45.18531" lon="5.67723">
        <ele>352</ele>
        <time>2011-09-07T07:51:46Z</time>
      </trkpt>
      <trkpt lat="45.18517" lon="5.67765">
        <ele>346</ele>
        <time>2011-09-07T07:51:50Z</time>
      </trkpt>
      <trkpt lat="45.18499" lon="5.67794">
        <ele>348</ele>
        <time>2011-09-07T07:51:54Z</time>
      </trkpt>
      <trkpt lat="45.18494" lon="5.67813">
        <ele>347</ele>
        <time>2011-09-07T07:51:56Z</time>
      </trkpt>
      <trkpt lat="45.18493" lon="5.67855">
        <ele>345</ele>
        <time>2011-09-07T07:52:01Z</time>
      </trkpt>
      <trkpt lat="45.18517" lon="5.67872">
        <ele>336</ele>
        <time>2011-09-07T07:52:04Z</time>
      </trkpt>
      <trkpt lat="45.1853" lon="5.67904">
        <ele>334</ele>
        <time>2011-09-07T07:52:10Z</time>
      </trkpt>
      <trkpt lat="45.18533" lon="5.67913">
        <ele>333</ele>
        <time>2011-09-07T07:52:12Z</time>
      </trkpt>
      <trkpt lat="45.18554" lon="5.67949">
        <ele>326</ele>
        <time>2011-09-07T07:52:18Z</time>
      </trkpt>
      <trkpt lat="45.18562" lon="5.67961">
        <ele>326</ele>
        <time>2011-09-07T07:52:20Z</time>
      </trkpt>
      <trkpt lat="45.18565" lon="5.67994">
        <ele>323</ele>
        <time>2011-09-07T07:52:26Z</time>
      </trkpt>
      <trkpt lat="45.18566" lon="5.68026">
        <ele>319</ele>
        <time>2011-09-07T07:52:30Z</time>
      </trkpt>
      <trkpt lat="45.18569" lon="5.6806">
        <ele>316</ele>
        <time>2011-09-07T07:52:34Z</time>
      </trkpt>
      <trkpt lat="45.18558" lon="5.68097">
        <ele>311</ele>
        <time>2011-09-07T07:52:38Z</time>
      </trkpt>
      <trkpt lat="45.18547" lon="5.68135">
        <ele>311</ele>
        <time>2011-09-07T07:52:42Z</time>
      </trkpt>
      <trkpt lat="45.18535" lon="5.68182">
        <ele>305</ele>
        <time>2011-09-07T07:52:46Z</time>
      </trkpt>
      <trkpt lat="45.18528" lon="5.68204">
        <ele>304</ele>
        <time>2011-09-07T07:52:48Z</time>
      </trkpt>
      <trkpt lat="45.18519" lon="5.68236">
        <ele>306</ele>
        <time>2011-09-07T07:52:53Z</time>
      </trkpt>
      <trkpt lat="45.18512" lon="5.68256">
        <ele>303</ele>
        <time>2011-09-07T07:52:58Z</time>
      </trkpt>
      <trkpt lat="45.18504" lon="5.68272">
        <ele>299</ele>
        <time>2011-09-07T07:53:00Z</time>
      </trkpt>
      <trkpt lat="45.18489" lon="5.68299">
        <ele>318</ele>
        <time>2011-09-07T07:53:06Z</time>
      </trkpt>
      <trkpt lat="45.18474" lon="5.6832">
        <ele>318</ele>
        <time>2011-09-07T07:53:10Z</time>
      </trkpt>
      <trkpt lat="45.18467" lon="5.68334">
        <ele>309</ele>
        <time>2011-09-07T07:53:12Z</time>
      </trkpt>
      <trkpt lat="45.18447" lon="5.68361">
        <ele>309</ele>
        <time>2011-09-07T07:53:18Z</time>
      </trkpt>
      <trkpt lat="45.18456" lon="5.6838">
        <ele>305</ele>
        <time>2011-09-07T07:53:21Z</time>
      </trkpt>
      <trkpt lat="45.1847" lon="5.68418">
        <ele>286</ele>
        <time>2011-09-07T07:53:26Z</time>
      </trkpt>
      <trkpt lat="45.18469" lon="5.68442">
        <ele>286</ele>
        <time>2011-09-07T07:53:29Z</time>
      </trkpt>
      <trkpt lat="45.18462" lon="5.68464">
        <ele>285</ele>
        <time>2011-09-07T07:53:34Z</time>
      </trkpt>
      <trkpt lat="45.18457" lon="5.68485">
        <ele>285</ele>
        <time>2011-09-07T07:53:36Z</time>
      </trkpt>
      <trkpt lat="45.18437" lon="5.68538">
        <ele>278</ele>
        <time>2011-09-07T07:53:42Z</time>
      </trkpt>
      <trkpt lat="45.18426" lon="5.68561">
        <ele>280</ele>
        <time>2011-09-07T07:53:46Z</time>
      </trkpt>
      <trkpt lat="45.18428" lon="5.68572">
        <ele>281</ele>
        <time>2011-09-07T07:53:48Z</time>
      </trkpt>
      <trkpt lat="45.18434" lon="5.68611">
        <ele>264</ele>
        <time>2011-09-07T07:53:53Z</time>
      </trkpt>
      <trkpt lat="45.18427" lon="5.68636">
        <ele>260</ele>
        <time>2011-09-07T07:53:57Z</time>
      </trkpt>
      <trkpt lat="45.18414" lon="5.68649">
        <ele>268</ele>
        <time>2011-09-07T07:54:02Z</time>
      </trkpt>
      <trkpt lat="45.18409" lon="5.68661">
        <ele>265</ele>
        <time>2011-09-07T07:54:05Z</time>
      </trkpt>
      <trkpt lat="45.18405" lon="5.68671">
        <ele>255</ele>
        <time>2011-09-07T07:54:07Z</time>
      </trkpt>
      <trkpt lat="45.18405" lon="5.68671">
        <ele>255</ele>
        <time>2011-09-07T07:54:18Z</time>
      </trkpt>
      <trkpt lat="45.18405" lon="5.68671">
        <ele>255</ele>
        <time>2011-09-07T07:54:28Z</time>
      </trkpt>
      <trkpt lat="45.18384" lon="5.68674">
        <ele>249</ele>
        <time>2011-09-07T07:54:31Z</time>
      </trkpt>
      <trkpt lat="45.18377" lon="5.68669">
        <ele>249</ele>
        <time>2011-09-07T07:54:34Z</time>
      </trkpt>
      <trkpt lat="45.18372" lon="5.68658">
        <ele>267</ele>
        <time>2011-09-07T07:54:38Z</time>
      </trkpt>
      <trkpt lat="45.18359" lon="5.68646">
        <ele>268</ele>
        <time>2011-09-07T07:54:43Z</time>
      </trkpt>
      <trkpt lat="45.18354" lon="5.68639">
        <ele>269</ele>
        <time>2011-09-07T07:54:46Z</time>
      </trkpt>
      <trkpt lat="45.18354" lon="5.68639">
        <ele>269</ele>
        <time>2011-09-07T07:54:58Z</time>
      </trkpt>
      <trkpt lat="45.18354" lon="5.68639">
        <ele>269</ele>
        <time>2011-09-07T07:55:35Z</time>
      </trkpt>
      <trkpt lat="45.18332" lon="5.68654">
        <ele>259</ele>
        <time>2011-09-07T07:55:44Z</time>
      </trkpt>
      <trkpt lat="45.18326" lon="5.68662">
        <ele>257</ele>
        <time>2011-09-07T07:55:49Z</time>
      </trkpt>
      <trkpt lat="45.18321" lon="5.68668">
        <ele>247</ele>
        <time>2011-09-07T07:55:51Z</time>
      </trkpt>
      <trkpt lat="45.18344" lon="5.68699">
        <ele>244</ele>
        <time>2011-09-07T07:56:02Z</time>
      </trkpt>
      <trkpt lat="45.18365" lon="5.68731">
        <ele>239</ele>
        <time>2011-09-07T07:56:06Z</time>
      </trkpt>
      <trkpt lat="45.18377" lon="5.68748">
        <ele>238</ele>
        <time>2011-09-07T07:56:09Z</time>
      </trkpt>
      <trkpt lat="45.18363" lon="5.68764">
        <ele>226</ele>
        <time>2011-09-07T07:56:13Z</time>
      </trkpt>
      <trkpt lat="45.18347" lon="5.68785">
        <ele>225</ele>
        <time>2011-09-07T07:56:17Z</time>
      </trkpt>
      <trkpt lat="45.18339" lon="5.68805">
        <ele>224</ele>
        <time>2011-09-07T07:56:21Z</time>
      </trkpt>
      <trkpt lat="45.18329" lon="5.68803">
        <ele>220</ele>
        <time>2011-09-07T07:56:26Z</time>
      </trkpt>
      <trkpt lat="45.18326" lon="5.68793">
        <ele>221</ele>
        <time>2011-09-07T07:56:30Z</time>
      </trkpt>
      <trkpt lat="45.18327" lon="5.68783">
        <ele>221</ele>
        <time>2011-09-07T07:56:33Z</time>
      </trkpt>
      <trkpt lat="45.18327" lon="5.68751">
        <ele>224</ele>
        <time>2011-09-07T07:56:41Z</time>
      </trkpt>
      <trkpt lat="45.18327" lon="5.68751">
        <ele>224</ele>
        <time>2011-09-07T07:56:52Z</time>
      </trkpt>
      <trkpt lat="45.18327" lon="5.68751">
        <ele>224</ele>
        <time>2011-09-07T07:56:54Z</time>
      </trkpt>
      <trkpt lat="45.18325" lon="5.6877">
        <ele>222</ele>
        <time>2011-09-07T07:56:58Z</time>
      </trkpt>
      <trkpt lat="45.18325" lon="5.68757">
        <ele>223</ele>
        <time>2011-09-07T07:57:03Z</time>
      </trkpt>
      <trkpt lat="45.18327" lon="5.68766">
        <ele>222</ele>
        <time>2011-09-07T07:57:10Z</time>
      </trkpt>
      <trkpt lat="45.18329" lon="5.68785">
        <ele>221</ele>
        <time>2011-09-07T07:57:15Z</time>
      </trkpt>
      <trkpt lat="45.18333" lon="5.68795">
        <ele>221</ele>
        <time>2011-09-07T07:57:18Z</time>
      </trkpt>
      <trkpt lat="45.18333" lon="5.68795">
        <ele>221</ele>
        <time>2011-09-07T07:57:29Z</time>
      </trkpt>
      <trkpt lat="45.18333" lon="5.68795">
        <ele>221</ele>
        <time>2011-09-07T07:59:46Z</time>
      </trkpt>
      <trkpt lat="45.1832" lon="5.68796">
        <ele>220</ele>
        <time>2011-09-07T07:59:48Z</time>
      </trkpt>
      <trkpt lat="45.18314" lon="5.68793">
        <ele>220</ele>
        <time>2011-09-07T07:59:50Z</time>
      </trkpt>
      <trkpt lat="45.1829" lon="5.68783">
        <ele>220</ele>
        <time>2011-09-07T07:59:57Z</time>
      </trkpt>
      <trkpt lat="45.18273" lon="5.68774">
        <ele>219</ele>
        <time>2011-09-07T08:00:01Z</time>
      </trkpt>
      <trkpt lat="45.18259" lon="5.68761">
        <ele>219</ele>
        <time>2011-09-07T08:00:05Z</time>
      </trkpt>
      <trkpt lat="45.18242" lon="5.68752">
        <ele>218</ele>
        <time>2011-09-07T08:00:09Z</time>
      </trkpt>
      <trkpt lat="45.18231" lon="5.68742">
        <ele>225</ele>
        <time>2011-09-07T08:00:13Z</time>
      </trkpt>
      <trkpt lat="45.18224" lon="5.68738">
        <ele>226</ele>
        <time>2011-09-07T08:00:16Z</time>
      </trkpt>
      <trkpt lat="45.18224" lon="5.68738">
        <ele>226</ele>
        <time>2011-09-07T08:00:27Z</time>
      </trkpt>
      <trkpt lat="45.18224" lon="5.68738">
        <ele>226</ele>
        <time>2011-09-07T08:00:41Z</time>
      </trkpt>
      <trkpt lat="45.18232" lon="5.68743">
        <ele>224</ele>
        <time>2011-09-07T08:00:55Z</time>
      </trkpt>
      <trkpt lat="45.18234" lon="5.68723">
        <ele>228</ele>
        <time>2011-09-07T08:01:00Z</time>
      </trkpt>
      <trkpt lat="45.18218" lon="5.68735">
        <ele>226</ele>
        <time>2011-09-07T08:01:11Z</time>
      </trkpt>
      <trkpt lat="45.18217" lon="5.68746">
        <ele>226</ele>
        <time>2011-09-07T08:01:13Z</time>
      </trkpt>
      <trkpt lat="45.18208" lon="5.68754">
        <ele>217</ele>
        <time>2011-09-07T08:01:18Z</time>
      </trkpt>
      <trkpt lat="45.18216" lon="5.68758">
        <ele>217</ele>
        <time>2011-09-07T08:01:27Z</time>
      </trkpt>
      <trkpt lat="45.18226" lon="5.68741">
        <ele>225</ele>
        <time>2011-09-07T08:01:31Z</time>
      </trkpt>
      <trkpt lat="45.18216" lon="5.68757">
        <ele>217</ele>
        <time>2011-09-07T08:01:40Z</time>
      </trkpt>
      <trkpt lat="45.1821" lon="5.68761">
        <ele>217</ele>
        <time>2011-09-07T08:01:44Z</time>
      </trkpt>
      <trkpt lat="45.18198" lon="5.68755">
        <ele>217</ele>
        <time>2011-09-07T08:01:53Z</time>
      </trkpt>
      <trkpt lat="45.18192" lon="5.68752">
        <ele>217</ele>
        <time>2011-09-07T08:02:00Z</time>
      </trkpt>
      <trkpt lat="45.18186" lon="5.68746">
        <ele>224</ele>
        <time>2011-09-07T08:02:06Z</time>
      </trkpt>
      <trkpt lat="45.18192" lon="5.68794">
        <ele>217</ele>
        <time>2011-09-07T08:02:15Z</time>
      </trkpt>
      <trkpt lat="45.18199" lon="5.68816">
        <ele>217</ele>
        <time>2011-09-07T08:02:18Z</time>
      </trkpt>
      <trkpt lat="45.18207" lon="5.68847">
        <ele>217</ele>
        <time>2011-09-07T08:02:22Z</time>
      </trkpt>
      <trkpt lat="45.18219" lon="5.68884">
        <ele>217</ele>
        <time>2011-09-07T08:02:27Z</time>
      </trkpt>
      <trkpt lat="45.18228" lon="5.6892">
        <ele>219</ele>
        <time>2011-09-07T08:02:31Z</time>
      </trkpt>
      <trkpt lat="45.18236" lon="5.68951">
        <ele>218</ele>
        <time>2011-09-07T08:02:35Z</time>
      </trkpt>
      <trkpt lat="45.18244" lon="5.68982">
        <ele>218</ele>
        <time>2011-09-07T08:02:39Z</time>
      </trkpt>
      <trkpt lat="45.18248" lon="5.68995">
        <ele>219</ele>
        <time>2011-09-07T08:02:41Z</time>
      </trkpt>
      <trkpt lat="45.1826" lon="5.6903">
        <ele>217</ele>
        <time>2011-09-07T08:02:46Z</time>
      </trkpt>
      <trkpt lat="45.18267" lon="5.69059">
        <ele>216</ele>
        <time>2011-09-07T08:02:50Z</time>
      </trkpt>
      <trkpt lat="45.18269" lon="5.69084">
        <ele>216</ele>
        <time>2011-09-07T08:02:54Z</time>
      </trkpt>
      <trkpt lat="45.18251" lon="5.69101">
        <ele>216</ele>
        <time>2011-09-07T08:02:58Z</time>
      </trkpt>
      <trkpt lat="45.18241" lon="5.69108">
        <ele>217</ele>
        <time>2011-09-07T08:03:00Z</time>
      </trkpt>
      <trkpt lat="45.18207" lon="5.69131">
        <ele>218</ele>
        <time>2011-09-07T08:03:07Z</time>
      </trkpt>
      <trkpt lat="45.18198" lon="5.6914">
        <ele>218</ele>
        <time>2011-09-07T08:03:09Z</time>
      </trkpt>
      <trkpt lat="45.18176" lon="5.69163">
        <ele>218</ele>
        <time>2011-09-07T08:03:14Z</time>
      </trkpt>
      <trkpt lat="45.1816" lon="5.69176">
        <ele>218</ele>
        <time>2011-09-07T08:03:18Z</time>
      </trkpt>
      <trkpt lat="45.18142" lon="5.69196">
        <ele>218</ele>
        <time>2011-09-07T08:03:22Z</time>
      </trkpt>
      <trkpt lat="45.18129" lon="5.69218">
        <ele>218</ele>
        <time>2011-09-07T08:03:26Z</time>
      </trkpt>
      <trkpt lat="45.18122" lon="5.69228">
        <ele>218</ele>
        <time>2011-09-07T08:03:28Z</time>
      </trkpt>
      <trkpt lat="45.18096" lon="5.69263">
        <ele>218</ele>
        <time>2011-09-07T08:03:35Z</time>
      </trkpt>
      <trkpt lat="45.18082" lon="5.69277">
        <ele>219</ele>
        <time>2011-09-07T08:03:38Z</time>
      </trkpt>
      <trkpt lat="45.18066" lon="5.69295">
        <ele>218</ele>
        <time>2011-09-07T08:03:42Z</time>
      </trkpt>
      <trkpt lat="45.18049" lon="5.69311">
        <ele>218</ele>
        <time>2011-09-07T08:03:46Z</time>
      </trkpt>
      <trkpt lat="45.18039" lon="5.69321">
        <ele>219</ele>
        <time>2011-09-07T08:03:48Z</time>
      </trkpt>
      <trkpt lat="45.18014" lon="5.69343">
        <ele>219</ele>
        <time>2011-09-07T08:03:54Z</time>
      </trkpt>
      <trkpt lat="45.18" lon="5.69359">
        <ele>218</ele>
        <time>2011-09-07T08:03:57Z</time>
      </trkpt>
      <trkpt lat="45.17991" lon="5.69382">
        <ele>217</ele>
        <time>2011-09-07T08:04:03Z</time>
      </trkpt>
      <trkpt lat="45.17999" lon="5.69397">
        <ele>217</ele>
        <time>2011-09-07T08:04:11Z</time>
      </trkpt>
      <trkpt lat="45.18009" lon="5.69411">
        <ele>217</ele>
        <time>2011-09-07T08:04:15Z</time>
      </trkpt>
      <trkpt lat="45.18016" lon="5.69414">
        <ele>217</ele>
        <time>2011-09-07T08:04:18Z</time>
      </trkpt>
      <trkpt lat="45.18014" lon="5.69453">
        <ele>216</ele>
        <time>2011-09-07T08:04:30Z</time>
      </trkpt>
      <trkpt lat="45.18015" lon="5.69468">
        <ele>216</ele>
        <time>2011-09-07T08:04:32Z</time>
      </trkpt>
      <trkpt lat="45.18011" lon="5.69513">
        <ele>217</ele>
        <time>2011-09-07T08:04:38Z</time>
      </trkpt>
      <trkpt lat="45.1801" lon="5.69529">
        <ele>217</ele>
        <time>2011-09-07T08:04:40Z</time>
      </trkpt>
      <trkpt lat="45.1801" lon="5.69575">
        <ele>218</ele>
        <time>2011-09-07T08:04:46Z</time>
      </trkpt>
      <trkpt lat="45.1801" lon="5.69608">
        <ele>218</ele>
        <time>2011-09-07T08:04:50Z</time>
      </trkpt>
      <trkpt lat="45.1801" lon="5.69623">
        <ele>218</ele>
        <time>2011-09-07T08:04:52Z</time>
      </trkpt>
      <trkpt lat="45.1801" lon="5.69668">
        <ele>219</ele>
        <time>2011-09-07T08:04:58Z</time>
      </trkpt>
      <trkpt lat="45.18022" lon="5.69684">
        <ele>219</ele>
        <time>2011-09-07T08:05:02Z</time>
      </trkpt>
      <trkpt lat="45.18035" lon="5.69695">
        <ele>218</ele>
        <time>2011-09-07T08:05:06Z</time>
      </trkpt>
      <trkpt lat="45.18034" lon="5.69726">
        <ele>218</ele>
        <time>2011-09-07T08:05:10Z</time>
      </trkpt>
      <trkpt lat="45.18034" lon="5.6976">
        <ele>217</ele>
        <time>2011-09-07T08:05:14Z</time>
      </trkpt>
      <trkpt lat="45.18035" lon="5.69803">
        <ele>217</ele>
        <time>2011-09-07T08:05:19Z</time>
      </trkpt>
      <trkpt lat="45.1803" lon="5.69833">
        <ele>217</ele>
        <time>2011-09-07T08:05:23Z</time>
      </trkpt>
      <trkpt lat="45.18028" lon="5.69848">
        <ele>217</ele>
        <time>2011-09-07T08:05:25Z</time>
      </trkpt>
      <trkpt lat="45.18027" lon="5.69889">
        <ele>217</ele>
        <time>2011-09-07T08:05:31Z</time>
      </trkpt>
      <trkpt lat="45.18027" lon="5.69919">
        <ele>217</ele>
        <time>2011-09-07T08:05:35Z</time>
      </trkpt>
      <trkpt lat="45.18023" lon="5.69946">
        <ele>217</ele>
        <time>2011-09-07T08:05:39Z</time>
      </trkpt>
      <trkpt lat="45.18022" lon="5.69969">
        <ele>217</ele>
        <time>2011-09-07T08:05:43Z</time>
      </trkpt>
      <trkpt lat="45.18022" lon="5.69994">
        <ele>217</ele>
        <time>2011-09-07T08:05:47Z</time>
      </trkpt>
      <trkpt lat="45.18021" lon="5.70021">
        <ele>217</ele>
        <time>2011-09-07T08:05:51Z</time>
      </trkpt>
      <trkpt lat="45.18021" lon="5.70046">
        <ele>217</ele>
        <time>2011-09-07T08:05:55Z</time>
      </trkpt>
      <trkpt lat="45.18021" lon="5.70057">
        <ele>216</ele>
        <time>2011-09-07T08:05:57Z</time>
      </trkpt>
      <trkpt lat="45.18019" lon="5.70083">
        <ele>216</ele>
        <time>2011-09-07T08:06:02Z</time>
      </trkpt>
      <trkpt lat="45.1802" lon="5.70104">
        <ele>216</ele>
        <time>2011-09-07T08:06:06Z</time>
      </trkpt>
      <trkpt lat="45.18019" lon="5.70125">
        <ele>217</ele>
        <time>2011-09-07T08:06:10Z</time>
      </trkpt>
      <trkpt lat="45.18018" lon="5.70149">
        <ele>218</ele>
        <time>2011-09-07T08:06:14Z</time>
      </trkpt>
      <trkpt lat="45.18017" lon="5.70171">
        <ele>219</ele>
        <time>2011-09-07T08:06:18Z</time>
      </trkpt>
      <trkpt lat="45.18018" lon="5.70201">
        <ele>219</ele>
        <time>2011-09-07T08:06:22Z</time>
      </trkpt>
      <trkpt lat="45.18016" lon="5.70233">
        <ele>220</ele>
        <time>2011-09-07T08:06:26Z</time>
      </trkpt>
      <trkpt lat="45.18016" lon="5.70277">
        <ele>220</ele>
        <time>2011-09-07T08:06:31Z</time>
      </trkpt>
      <trkpt lat="45.18015" lon="5.70319">
        <ele>219</ele>
        <time>2011-09-07T08:06:35Z</time>
      </trkpt>
      <trkpt lat="45.18015" lon="5.70362">
        <ele>219</ele>
        <time>2011-09-07T08:06:39Z</time>
      </trkpt>
      <trkpt lat="45.18019" lon="5.70408">
        <ele>220</ele>
        <time>2011-09-07T08:06:43Z</time>
      </trkpt>
      <trkpt lat="45.1802" lon="5.70455">
        <ele>221</ele>
        <time>2011-09-07T08:06:47Z</time>
      </trkpt>
      <trkpt lat="45.18021" lon="5.70499">
        <ele>220</ele>
        <time>2011-09-07T08:06:51Z</time>
      </trkpt>
      <trkpt lat="45.18024" lon="5.7053">
        <ele>221</ele>
        <time>2011-09-07T08:06:54Z</time>
      </trkpt>
      <trkpt lat="45.18025" lon="5.70584">
        <ele>221</ele>
        <time>2011-09-07T08:06:59Z</time>
      </trkpt>
      <trkpt lat="45.18028" lon="5.70612">
        <ele>222</ele>
        <time>2011-09-07T08:07:02Z</time>
      </trkpt>
      <trkpt lat="45.18026" lon="5.70654">
        <ele>221</ele>
        <time>2011-09-07T08:07:06Z</time>
      </trkpt>
      <trkpt lat="45.18024" lon="5.70698">
        <ele>221</ele>
        <time>2011-09-07T08:07:11Z</time>
      </trkpt>
      <trkpt lat="45.18018" lon="5.7072">
        <ele>221</ele>
        <time>2011-09-07T08:07:14Z</time>
      </trkpt>
      <trkpt lat="45.18027" lon="5.70762">
        <ele>220</ele>
        <time>2011-09-07T08:07:18Z</time>
      </trkpt>
      <trkpt lat="45.18029" lon="5.70789">
        <ele>220</ele>
        <time>2011-09-07T08:07:21Z</time>
      </trkpt>
      <trkpt lat="45.18025" lon="5.70839">
        <ele>220</ele>
        <time>2011-09-07T08:07:27Z</time>
      </trkpt>
      <trkpt lat="45.18025" lon="5.70871">
        <ele>219</ele>
        <time>2011-09-07T08:07:31Z</time>
      </trkpt>
      <trkpt lat="45.18023" lon="5.70905">
        <ele>218</ele>
        <time>2011-09-07T08:07:35Z</time>
      </trkpt>
      <trkpt lat="45.18026" lon="5.70938">
        <ele>218</ele>
        <time>2011-09-07T08:07:39Z</time>
      </trkpt>
      <trkpt lat="45.18031" lon="5.70978">
        <ele>218</ele>
        <time>2011-09-07T08:07:43Z</time>
      </trkpt>
      <trkpt lat="45.1803" lon="5.70994">
        <ele>218</ele>
        <time>2011-09-07T08:07:45Z</time>
      </trkpt>
      <trkpt lat="45.18031" lon="5.71004">
        <ele>219</ele>
        <time>2011-09-07T08:07:50Z</time>
      </trkpt>
      <trkpt lat="45.18028" lon="5.71023">
        <ele>219</ele>
        <time>2011-09-07T08:07:55Z</time>
      </trkpt>
      <trkpt lat="45.18027" lon="5.71059">
        <ele>219</ele>
        <time>2011-09-07T08:07:59Z</time>
      </trkpt>
      <trkpt lat="45.18027" lon="5.71086">
        <ele>220</ele>
        <time>2011-09-07T08:08:02Z</time>
      </trkpt>
      <trkpt lat="45.18028" lon="5.71132">
        <ele>221</ele>
        <time>2011-09-07T08:08:07Z</time>
      </trkpt>
      <trkpt lat="45.18028" lon="5.71141">
        <ele>221</ele>
        <time>2011-09-07T08:08:08Z</time>
      </trkpt>
      <trkpt lat="45.18029" lon="5.71189">
        <ele>220</ele>
        <time>2011-09-07T08:08:13Z</time>
      </trkpt>
      <trkpt lat="45.18033" lon="5.71224">
        <ele>220</ele>
        <time>2011-09-07T08:08:17Z</time>
      </trkpt>
      <trkpt lat="45.18035" lon="5.71279">
        <ele>220</ele>
        <time>2011-09-07T08:08:23Z</time>
      </trkpt>
      <trkpt lat="45.18031" lon="5.71305">
        <ele>220</ele>
        <time>2011-09-07T08:08:26Z</time>
      </trkpt>
      <trkpt lat="45.18035" lon="5.71347">
        <ele>220</ele>
        <time>2011-09-07T08:08:31Z</time>
      </trkpt>
      <trkpt lat="45.1804" lon="5.71384">
        <ele>220</ele>
        <time>2011-09-07T08:08:35Z</time>
      </trkpt>
      <trkpt lat="45.1804" lon="5.71401">
        <ele>220</ele>
        <time>2011-09-07T08:08:37Z</time>
      </trkpt>
      <trkpt lat="45.18041" lon="5.71435">
        <ele>221</ele>
        <time>2011-09-07T08:08:41Z</time>
      </trkpt>
      <trkpt lat="45.18041" lon="5.71479">
        <ele>221</ele>
        <time>2011-09-07T08:08:46Z</time>
      </trkpt>
      <trkpt lat="45.18046" lon="5.71516">
        <ele>223</ele>
        <time>2011-09-07T08:08:50Z</time>
      </trkpt>
      <trkpt lat="45.18048" lon="5.7155">
        <ele>224</ele>
        <time>2011-09-07T08:08:55Z</time>
      </trkpt>
      <trkpt lat="45.18048" lon="5.71563">
        <ele>225</ele>
        <time>2011-09-07T08:08:57Z</time>
      </trkpt>
      <trkpt lat="45.18048" lon="5.71563">
        <ele>225</ele>
        <time>2011-09-07T08:09:08Z</time>
      </trkpt>
      <trkpt lat="45.18048" lon="5.71563">
        <ele>225</ele>
        <time>2011-09-07T08:09:09Z</time>
      </trkpt>
      <trkpt lat="45.18025" lon="5.71604">
        <ele>226</ele>
        <time>2011-09-07T08:09:14Z</time>
      </trkpt>
      <trkpt lat="45.18022" lon="5.71644">
        <ele>225</ele>
        <time>2011-09-07T08:09:24Z</time>
      </trkpt>
      <trkpt lat="45.18025" lon="5.71659">
        <ele>225</ele>
        <time>2011-09-07T08:09:26Z</time>
      </trkpt>
      <trkpt lat="45.18052" lon="5.71749">
        <ele>227</ele>
        <time>2011-09-07T08:09:36Z</time>
      </trkpt>
      <trkpt lat="45.18041" lon="5.71766">
        <ele>226</ele>
        <time>2011-09-07T08:09:38Z</time>
      </trkpt>
      <trkpt lat="45.18037" lon="5.71822">
        <ele>225</ele>
        <time>2011-09-07T08:09:43Z</time>
      </trkpt>
      <trkpt lat="45.18037" lon="5.71845">
        <ele>223</ele>
        <time>2011-09-07T08:09:46Z</time>
      </trkpt>
      <trkpt lat="45.18029" lon="5.71875">
        <ele>222</ele>
        <time>2011-09-07T08:09:51Z</time>
      </trkpt>
      <trkpt lat="45.1803" lon="5.71895">
        <ele>221</ele>
        <time>2011-09-07T08:09:55Z</time>
      </trkpt>
      <trkpt lat="45.1803" lon="5.71918">
        <ele>221</ele>
        <time>2011-09-07T08:09:59Z</time>
      </trkpt>
      <trkpt lat="45.18035" lon="5.71951">
        <ele>222</ele>
        <time>2011-09-07T08:10:03Z</time>
      </trkpt>
      <trkpt lat="45.18035" lon="5.71951">
        <ele>222</ele>
        <time>2011-09-07T08:10:14Z</time>
      </trkpt>
      <trkpt lat="45.18035" lon="5.71951">
        <ele>222</ele>
        <time>2011-09-07T08:10:39Z</time>
      </trkpt>
      <trkpt lat="45.18042" lon="5.71982">
        <ele>223</ele>
        <time>2011-09-07T08:10:44Z</time>
      </trkpt>
      <trkpt lat="45.18047" lon="5.72018">
        <ele>225</ele>
        <time>2011-09-07T08:10:48Z</time>
      </trkpt>
      <trkpt lat="45.18053" lon="5.72074">
        <ele>225</ele>
        <time>2011-09-07T08:10:53Z</time>
      </trkpt>
      <trkpt lat="45.18054" lon="5.72083">
        <ele>224</ele>
        <time>2011-09-07T08:10:54Z</time>
      </trkpt>
      <trkpt lat="45.18063" lon="5.72148">
        <ele>224</ele>
        <time>2011-09-07T08:11:03Z</time>
      </trkpt>
      <trkpt lat="45.18083" lon="5.72198">
        <ele>225</ele>
        <time>2011-09-07T08:11:09Z</time>
      </trkpt>
      <trkpt lat="45.18107" lon="5.72227">
        <ele>224</ele>
        <time>2011-09-07T08:11:13Z</time>
      </trkpt>
      <trkpt lat="45.1808" lon="5.72267">
        <ele>226</ele>
        <time>2011-09-07T08:11:16Z</time>
      </trkpt>
      <trkpt lat="45.18083" lon="5.72294">
        <ele>226</ele>
        <time>2011-09-07T08:11:19Z</time>
      </trkpt>
      <trkpt lat="45.18083" lon="5.72294">
        <ele>226</ele>
        <time>2011-09-07T08:11:30Z</time>
      </trkpt>
      <trkpt lat="45.18083" lon="5.72294">
        <ele>226</ele>
        <time>2011-09-07T08:11:48Z</time>
      </trkpt>
      <trkpt lat="45.18082" lon="5.72339">
        <ele>227</ele>
        <time>2011-09-07T08:11:51Z</time>
      </trkpt>
      <trkpt lat="45.18085" lon="5.72352">
        <ele>225</ele>
        <time>2011-09-07T08:11:53Z</time>
      </trkpt>
      <trkpt lat="45.18094" lon="5.72393">
        <ele>224</ele>
        <time>2011-09-07T08:11:58Z</time>
      </trkpt>
      <trkpt lat="45.18103" lon="5.72433">
        <ele>222</ele>
        <time>2011-09-07T08:12:03Z</time>
      </trkpt>
      <trkpt lat="45.18109" lon="5.72457">
        <ele>222</ele>
        <time>2011-09-07T08:12:06Z</time>
      </trkpt>
      <trkpt lat="45.18118" lon="5.72484">
        <ele>221</ele>
        <time>2011-09-07T08:12:11Z</time>
      </trkpt>
      <trkpt lat="45.18118" lon="5.72494">
        <ele>221</ele>
        <time>2011-09-07T08:12:13Z</time>
      </trkpt>
      <trkpt lat="45.18135" lon="5.72555">
        <ele>223</ele>
        <time>2011-09-07T08:12:23Z</time>
      </trkpt>
      <trkpt lat="45.18136" lon="5.72576">
        <ele>224</ele>
        <time>2011-09-07T08:12:27Z</time>
      </trkpt>
      <trkpt lat="45.18137" lon="5.72597">
        <ele>225</ele>
        <time>2011-09-07T08:12:30Z</time>
      </trkpt>
      <trkpt lat="45.18145" lon="5.72634">
        <ele>225</ele>
        <time>2011-09-07T08:12:34Z</time>
      </trkpt>
      <trkpt lat="45.18158" lon="5.72678">
        <ele>225</ele>
        <time>2011-09-07T08:12:39Z</time>
      </trkpt>
      <trkpt lat="45.18164" lon="5.72703">
        <ele>223</ele>
        <time>2011-09-07T08:12:42Z</time>
      </trkpt>
      <trkpt lat="45.18171" lon="5.72726">
        <ele>222</ele>
        <time>2011-09-07T08:12:45Z</time>
      </trkpt>
      <trkpt lat="45.18179" lon="5.72759">
        <ele>222</ele>
        <time>2011-09-07T08:12:50Z</time>
      </trkpt>
      <trkpt lat="45.18186" lon="5.72787">
        <ele>223</ele>
        <time>2011-09-07T08:12:54Z</time>
      </trkpt>
      <trkpt lat="45.18186" lon="5.72847">
        <ele>225</ele>
        <time>2011-09-07T08:13:02Z</time>
      </trkpt>
      <trkpt lat="45.18194" lon="5.72887">
        <ele>225</ele>
        <time>2011-09-07T08:13:07Z</time>
      </trkpt>
      <trkpt lat="45.18198" lon="5.72901">
        <ele>225</ele>
        <time>2011-09-07T08:13:09Z</time>
      </trkpt>
      <trkpt lat="45.18193" lon="5.72957">
        <ele>223</ele>
        <time>2011-09-07T08:13:14Z</time>
      </trkpt>
      <trkpt lat="45.18204" lon="5.72992">
        <ele>222</ele>
        <time>2011-09-07T08:13:21Z</time>
      </trkpt>
      <trkpt lat="45.18203" lon="5.73042">
        <ele>219</ele>
        <time>2011-09-07T08:13:27Z</time>
      </trkpt>
      <trkpt lat="45.18193" lon="5.73088">
        <ele>218</ele>
        <time>2011-09-07T08:13:31Z</time>
      </trkpt>
      <trkpt lat="45.18189" lon="5.73134">
        <ele>217</ele>
        <time>2011-09-07T08:13:35Z</time>
      </trkpt>
      <trkpt lat="45.18189" lon="5.73134">
        <ele>217</ele>
        <time>2011-09-07T08:13:46Z</time>
      </trkpt>
      <trkpt lat="45.18189" lon="5.73134">
        <ele>217</ele>
        <time>2011-09-07T08:13:54Z</time>
      </trkpt>
      <trkpt lat="45.18208" lon="5.73144">
        <ele>217</ele>
        <time>2011-09-07T08:13:58Z</time>
      </trkpt>
      <trkpt lat="45.18249" lon="5.73143">
        <ele>217</ele>
        <time>2011-09-07T08:14:06Z</time>
      </trkpt>
      <trkpt lat="45.18275" lon="5.73139">
        <ele>217</ele>
        <time>2011-09-07T08:14:11Z</time>
      </trkpt>
      <trkpt lat="45.18286" lon="5.73138">
        <ele>217</ele>
        <time>2011-09-07T08:14:13Z</time>
      </trkpt>
      <trkpt lat="45.18306" lon="5.73129">
        <ele>218</ele>
        <time>2011-09-07T08:14:17Z</time>
      </trkpt>
      <trkpt lat="45.18321" lon="5.73143">
        <ele>217</ele>
        <time>2011-09-07T08:14:23Z</time>
      </trkpt>
      <trkpt lat="45.18321" lon="5.73143">
        <ele>217</ele>
        <time>2011-09-07T08:14:34Z</time>
      </trkpt>
      <trkpt lat="45.18321" lon="5.73143">
        <ele>217</ele>
        <time>2011-09-07T08:14:43Z</time>
      </trkpt>
      <trkpt lat="45.18314" lon="5.73155">
        <ele>217</ele>
        <time>2011-09-07T08:14:47Z</time>
      </trkpt>
      <trkpt lat="45.18335" lon="5.73142">
        <ele>219</ele>
        <time>2011-09-07T08:14:54Z</time>
      </trkpt>
      <trkpt lat="45.18328" lon="5.73157">
        <ele>217</ele>
        <time>2011-09-07T08:14:58Z</time>
      </trkpt>
      <trkpt lat="45.18328" lon="5.73157">
        <ele>217</ele>
        <time>2011-09-07T08:15:09Z</time>
      </trkpt>
      <trkpt lat="45.18328" lon="5.73157">
        <ele>217</ele>
        <time>2011-09-07T08:15:17Z</time>
      </trkpt>
      <trkpt lat="45.18344" lon="5.73128">
        <ele>219</ele>
        <time>2011-09-07T08:15:20Z</time>
      </trkpt>
      <trkpt lat="45.18338" lon="5.7312">
        <ele>219</ele>
        <time>2011-09-07T08:15:24Z</time>
      </trkpt>
      <trkpt lat="45.18338" lon="5.7312">
        <ele>219</ele>
        <time>2011-09-07T08:15:35Z</time>
      </trkpt>
      <trkpt lat="45.18338" lon="5.7312">
        <ele>219</ele>
        <time>2011-09-07T08:16:02Z</time>
      </trkpt>
    </trkseg>
  </trk>
</gpx>